<?xml version="1.0" encoding="UTF-8" standalone="no" ?>
<gpx xmlns="http://www.topografix.com/GPX/1/1" xmlns:xsi="http://www.w3.org/2001/XMLSchema-instance" xsi:schemaLocation="http://www.topografix.com/GPX/1/1 http://www.topografix.com/GPX/1/1/gpx.xsd" version="1.1" creator="VisuGPX - https://www.visugpx.com">
  <metadata>
    <name>83-Collobrières</name>
    <desc><![CDATA[83-Collobrières : la chartreuse de la Verne]]></desc>
  </metadata>
  <trk>
    <name><![CDATA[2015-04-19-CD-collobrieres]]></name>
    <trkseg>
      <trkpt lat="43.23782" lon="6.35595">
        <ele>357</ele>
        <time>2015-04-19T07:18:09Z</time>
      </trkpt>
      <trkpt lat="43.23783" lon="6.35606">
        <ele>354.7</ele>
        <time>2015-04-19T07:22:27Z</time>
      </trkpt>
      <trkpt lat="43.23784" lon="6.35607">
        <ele>354.7</ele>
        <time>2015-04-19T07:22:28Z</time>
      </trkpt>
      <trkpt lat="43.23793" lon="6.35625">
        <ele>356.3</ele>
        <time>2015-04-19T07:22:43Z</time>
      </trkpt>
      <trkpt lat="43.23799" lon="6.35632">
        <ele>357.5</ele>
        <time>2015-04-19T07:22:58Z</time>
      </trkpt>
      <trkpt lat="43.23806" lon="6.35639">
        <ele>358.8</ele>
        <time>2015-04-19T07:23:10Z</time>
      </trkpt>
      <trkpt lat="43.23813" lon="6.35644">
        <ele>359.7</ele>
        <time>2015-04-19T07:23:20Z</time>
      </trkpt>
      <trkpt lat="43.23821" lon="6.3565">
        <ele>361.6</ele>
        <time>2015-04-19T07:23:29Z</time>
      </trkpt>
      <trkpt lat="43.23822" lon="6.35651">
        <ele>361.4</ele>
        <time>2015-04-19T07:23:30Z</time>
      </trkpt>
      <trkpt lat="43.23836" lon="6.35659">
        <ele>364.7</ele>
        <time>2015-04-19T07:23:49Z</time>
      </trkpt>
      <trkpt lat="43.23844" lon="6.35662">
        <ele>365.7</ele>
        <time>2015-04-19T07:24:00Z</time>
      </trkpt>
      <trkpt lat="43.23853" lon="6.35662">
        <ele>366.1</ele>
        <time>2015-04-19T07:24:11Z</time>
      </trkpt>
      <trkpt lat="43.23861" lon="6.35661">
        <ele>366.7</ele>
        <time>2015-04-19T07:24:20Z</time>
      </trkpt>
      <trkpt lat="43.2387" lon="6.35663">
        <ele>367.9</ele>
        <time>2015-04-19T07:24:33Z</time>
      </trkpt>
      <trkpt lat="43.23871" lon="6.35663">
        <ele>368</ele>
        <time>2015-04-19T07:24:34Z</time>
      </trkpt>
      <trkpt lat="43.23886" lon="6.35667">
        <ele>368.4</ele>
        <time>2015-04-19T07:24:49Z</time>
      </trkpt>
      <trkpt lat="43.23894" lon="6.35673">
        <ele>368.2</ele>
        <time>2015-04-19T07:25:01Z</time>
      </trkpt>
      <trkpt lat="43.23901" lon="6.3568">
        <ele>370.2</ele>
        <time>2015-04-19T07:25:11Z</time>
      </trkpt>
      <trkpt lat="43.23909" lon="6.35686">
        <ele>371.1</ele>
        <time>2015-04-19T07:25:20Z</time>
      </trkpt>
      <trkpt lat="43.23916" lon="6.35691">
        <ele>372.2</ele>
        <time>2015-04-19T07:25:29Z</time>
      </trkpt>
      <trkpt lat="43.23925" lon="6.35695">
        <ele>372</ele>
        <time>2015-04-19T07:25:38Z</time>
      </trkpt>
      <trkpt lat="43.23925" lon="6.35695">
        <ele>372.6</ele>
        <time>2015-04-19T07:25:39Z</time>
      </trkpt>
      <trkpt lat="43.23941" lon="6.357">
        <ele>374.8</ele>
        <time>2015-04-19T07:25:56Z</time>
      </trkpt>
      <trkpt lat="43.23947" lon="6.35706">
        <ele>375.3</ele>
        <time>2015-04-19T07:26:07Z</time>
      </trkpt>
      <trkpt lat="43.23953" lon="6.35715">
        <ele>375.7</ele>
        <time>2015-04-19T07:26:17Z</time>
      </trkpt>
      <trkpt lat="43.23956" lon="6.35725">
        <ele>376.2</ele>
        <time>2015-04-19T07:26:23Z</time>
      </trkpt>
      <trkpt lat="43.23963" lon="6.35731">
        <ele>377.5</ele>
        <time>2015-04-19T07:26:36Z</time>
      </trkpt>
      <trkpt lat="43.23969" lon="6.3574">
        <ele>379.5</ele>
        <time>2015-04-19T07:26:52Z</time>
      </trkpt>
      <trkpt lat="43.2397" lon="6.3574">
        <ele>379.6</ele>
        <time>2015-04-19T07:26:53Z</time>
      </trkpt>
      <trkpt lat="43.2398" lon="6.35758">
        <ele>383.3</ele>
        <time>2015-04-19T07:27:17Z</time>
      </trkpt>
      <trkpt lat="43.23984" lon="6.35769">
        <ele>384</ele>
        <time>2015-04-19T07:27:30Z</time>
      </trkpt>
      <trkpt lat="43.23988" lon="6.35779">
        <ele>385.2</ele>
        <time>2015-04-19T07:27:37Z</time>
      </trkpt>
      <trkpt lat="43.23993" lon="6.35788">
        <ele>390</ele>
        <time>2015-04-19T07:27:57Z</time>
      </trkpt>
      <trkpt lat="43.23994" lon="6.35789">
        <ele>389.9</ele>
        <time>2015-04-19T07:27:58Z</time>
      </trkpt>
      <trkpt lat="43.24003" lon="6.35807">
        <ele>394.4</ele>
        <time>2015-04-19T07:28:27Z</time>
      </trkpt>
      <trkpt lat="43.2401" lon="6.35815">
        <ele>395.5</ele>
        <time>2015-04-19T07:28:38Z</time>
      </trkpt>
      <trkpt lat="43.24015" lon="6.35825">
        <ele>398.8</ele>
        <time>2015-04-19T07:28:52Z</time>
      </trkpt>
      <trkpt lat="43.24019" lon="6.35834">
        <ele>399.2</ele>
        <time>2015-04-19T07:29:01Z</time>
      </trkpt>
      <trkpt lat="43.2402" lon="6.35835">
        <ele>398.9</ele>
        <time>2015-04-19T07:29:02Z</time>
      </trkpt>
      <trkpt lat="43.2403" lon="6.35851">
        <ele>405.5</ele>
        <time>2015-04-19T07:29:39Z</time>
      </trkpt>
      <trkpt lat="43.24034" lon="6.35862">
        <ele>409</ele>
        <time>2015-04-19T07:29:59Z</time>
      </trkpt>
      <trkpt lat="43.24038" lon="6.35872">
        <ele>411.5</ele>
        <time>2015-04-19T07:30:18Z</time>
      </trkpt>
      <trkpt lat="43.24038" lon="6.35873">
        <ele>410.9</ele>
        <time>2015-04-19T07:30:19Z</time>
      </trkpt>
      <trkpt lat="43.24048" lon="6.3589">
        <ele>416.9</ele>
        <time>2015-04-19T07:30:40Z</time>
      </trkpt>
      <trkpt lat="43.24052" lon="6.35901">
        <ele>419.5</ele>
        <time>2015-04-19T07:31:04Z</time>
      </trkpt>
      <trkpt lat="43.24056" lon="6.35911">
        <ele>421.6</ele>
        <time>2015-04-19T07:31:17Z</time>
      </trkpt>
      <trkpt lat="43.2406" lon="6.35922">
        <ele>424</ele>
        <time>2015-04-19T07:31:32Z</time>
      </trkpt>
      <trkpt lat="43.2406" lon="6.35922">
        <ele>424.2</ele>
        <time>2015-04-19T07:31:33Z</time>
      </trkpt>
      <trkpt lat="43.24069" lon="6.35941">
        <ele>427.8</ele>
        <time>2015-04-19T07:32:04Z</time>
      </trkpt>
      <trkpt lat="43.24073" lon="6.35952">
        <ele>430.6</ele>
        <time>2015-04-19T07:32:16Z</time>
      </trkpt>
      <trkpt lat="43.24078" lon="6.35962">
        <ele>432</ele>
        <time>2015-04-19T07:32:26Z</time>
      </trkpt>
      <trkpt lat="43.24081" lon="6.35973">
        <ele>431.8</ele>
        <time>2015-04-19T07:32:45Z</time>
      </trkpt>
      <trkpt lat="43.24082" lon="6.35974">
        <ele>432</ele>
        <time>2015-04-19T07:32:46Z</time>
      </trkpt>
      <trkpt lat="43.24092" lon="6.35992">
        <ele>434.8</ele>
        <time>2015-04-19T07:33:09Z</time>
      </trkpt>
      <trkpt lat="43.24096" lon="6.36003">
        <ele>436.9</ele>
        <time>2015-04-19T07:33:20Z</time>
      </trkpt>
      <trkpt lat="43.24099" lon="6.36014">
        <ele>437.6</ele>
        <time>2015-04-19T07:33:29Z</time>
      </trkpt>
      <trkpt lat="43.24103" lon="6.36024">
        <ele>438.5</ele>
        <time>2015-04-19T07:33:38Z</time>
      </trkpt>
      <trkpt lat="43.24108" lon="6.36034">
        <ele>439.1</ele>
        <time>2015-04-19T07:33:49Z</time>
      </trkpt>
      <trkpt lat="43.24109" lon="6.36035">
        <ele>439.3</ele>
        <time>2015-04-19T07:33:50Z</time>
      </trkpt>
      <trkpt lat="43.24117" lon="6.36054">
        <ele>440.6</ele>
        <time>2015-04-19T07:34:06Z</time>
      </trkpt>
      <trkpt lat="43.2412" lon="6.36065">
        <ele>439.9</ele>
        <time>2015-04-19T07:34:14Z</time>
      </trkpt>
      <trkpt lat="43.24123" lon="6.36075">
        <ele>440.4</ele>
        <time>2015-04-19T07:34:22Z</time>
      </trkpt>
      <trkpt lat="43.24127" lon="6.36086">
        <ele>441.6</ele>
        <time>2015-04-19T07:34:30Z</time>
      </trkpt>
      <trkpt lat="43.24133" lon="6.36095">
        <ele>442.6</ele>
        <time>2015-04-19T07:34:41Z</time>
      </trkpt>
      <trkpt lat="43.24141" lon="6.36096">
        <ele>442.2</ele>
        <time>2015-04-19T07:34:49Z</time>
      </trkpt>
      <trkpt lat="43.2415" lon="6.36098">
        <ele>440.8</ele>
        <time>2015-04-19T07:35:00Z</time>
      </trkpt>
      <trkpt lat="43.24151" lon="6.36098">
        <ele>441.1</ele>
        <time>2015-04-19T07:35:01Z</time>
      </trkpt>
      <trkpt lat="43.24167" lon="6.36096">
        <ele>439.9</ele>
        <time>2015-04-19T07:35:18Z</time>
      </trkpt>
      <trkpt lat="43.24176" lon="6.36096">
        <ele>437.3</ele>
        <time>2015-04-19T07:35:36Z</time>
      </trkpt>
      <trkpt lat="43.24184" lon="6.36096">
        <ele>433.9</ele>
        <time>2015-04-19T07:35:48Z</time>
      </trkpt>
      <trkpt lat="43.24192" lon="6.36094">
        <ele>431.8</ele>
        <time>2015-04-19T07:35:58Z</time>
      </trkpt>
      <trkpt lat="43.242" lon="6.36092">
        <ele>431.3</ele>
        <time>2015-04-19T07:36:06Z</time>
      </trkpt>
      <trkpt lat="43.24201" lon="6.36091">
        <ele>431.4</ele>
        <time>2015-04-19T07:36:07Z</time>
      </trkpt>
      <trkpt lat="43.24217" lon="6.36091">
        <ele>425.4</ele>
        <time>2015-04-19T07:36:33Z</time>
      </trkpt>
      <trkpt lat="43.24226" lon="6.3609">
        <ele>422</ele>
        <time>2015-04-19T07:37:05Z</time>
      </trkpt>
      <trkpt lat="43.24235" lon="6.3609">
        <ele>423.4</ele>
        <time>2015-04-19T07:37:23Z</time>
      </trkpt>
      <trkpt lat="43.24235" lon="6.3609">
        <ele>423.4</ele>
        <time>2015-04-19T07:37:24Z</time>
      </trkpt>
      <trkpt lat="43.24252" lon="6.36093">
        <ele>416</ele>
        <time>2015-04-19T07:38:21Z</time>
      </trkpt>
      <trkpt lat="43.24261" lon="6.36093">
        <ele>411.3</ele>
        <time>2015-04-19T07:38:33Z</time>
      </trkpt>
      <trkpt lat="43.24261" lon="6.36093">
        <ele>411.2</ele>
        <time>2015-04-19T07:38:34Z</time>
      </trkpt>
      <trkpt lat="43.24278" lon="6.36097">
        <ele>406.6</ele>
        <time>2015-04-19T07:38:56Z</time>
      </trkpt>
      <trkpt lat="43.24286" lon="6.36098">
        <ele>403.9</ele>
        <time>2015-04-19T07:39:09Z</time>
      </trkpt>
      <trkpt lat="43.24295" lon="6.36098">
        <ele>400.6</ele>
        <time>2015-04-19T07:39:27Z</time>
      </trkpt>
      <trkpt lat="43.24303" lon="6.36101">
        <ele>398.1</ele>
        <time>2015-04-19T07:39:42Z</time>
      </trkpt>
      <trkpt lat="43.24304" lon="6.36101">
        <ele>398</ele>
        <time>2015-04-19T07:39:43Z</time>
      </trkpt>
      <trkpt lat="43.24312" lon="6.3612">
        <ele>396.5</ele>
        <time>2015-04-19T07:40:02Z</time>
      </trkpt>
      <trkpt lat="43.24316" lon="6.36131">
        <ele>396.8</ele>
        <time>2015-04-19T07:40:11Z</time>
      </trkpt>
      <trkpt lat="43.24319" lon="6.36143">
        <ele>395.4</ele>
        <time>2015-04-19T07:40:20Z</time>
      </trkpt>
      <trkpt lat="43.24323" lon="6.36152">
        <ele>394.8</ele>
        <time>2015-04-19T07:40:29Z</time>
      </trkpt>
      <trkpt lat="43.24323" lon="6.36164">
        <ele>394.1</ele>
        <time>2015-04-19T07:40:38Z</time>
      </trkpt>
      <trkpt lat="43.24319" lon="6.36174">
        <ele>393.2</ele>
        <time>2015-04-19T07:40:53Z</time>
      </trkpt>
      <trkpt lat="43.24319" lon="6.36175">
        <ele>392.8</ele>
        <time>2015-04-19T07:40:54Z</time>
      </trkpt>
      <trkpt lat="43.24328" lon="6.36194">
        <ele>391.3</ele>
        <time>2015-04-19T07:41:14Z</time>
      </trkpt>
      <trkpt lat="43.24332" lon="6.36203">
        <ele>389</ele>
        <time>2015-04-19T07:41:20Z</time>
      </trkpt>
      <trkpt lat="43.24335" lon="6.36214">
        <ele>387.3</ele>
        <time>2015-04-19T07:41:29Z</time>
      </trkpt>
      <trkpt lat="43.24337" lon="6.36226">
        <ele>384.8</ele>
        <time>2015-04-19T07:41:40Z</time>
      </trkpt>
      <trkpt lat="43.24336" lon="6.36237">
        <ele>384.6</ele>
        <time>2015-04-19T07:41:51Z</time>
      </trkpt>
      <trkpt lat="43.24336" lon="6.3625">
        <ele>383.4</ele>
        <time>2015-04-19T07:42:04Z</time>
      </trkpt>
      <trkpt lat="43.24335" lon="6.3625">
        <ele>383.1</ele>
        <time>2015-04-19T07:42:05Z</time>
      </trkpt>
      <trkpt lat="43.24334" lon="6.36271">
        <ele>381.5</ele>
        <time>2015-04-19T07:42:22Z</time>
      </trkpt>
      <trkpt lat="43.24332" lon="6.36283">
        <ele>381.8</ele>
        <time>2015-04-19T07:42:29Z</time>
      </trkpt>
      <trkpt lat="43.24331" lon="6.36295">
        <ele>382.9</ele>
        <time>2015-04-19T07:42:37Z</time>
      </trkpt>
      <trkpt lat="43.24331" lon="6.36306">
        <ele>382.4</ele>
        <time>2015-04-19T07:42:45Z</time>
      </trkpt>
      <trkpt lat="43.2433" lon="6.36318">
        <ele>381.1</ele>
        <time>2015-04-19T07:42:52Z</time>
      </trkpt>
      <trkpt lat="43.24331" lon="6.36329">
        <ele>380.4</ele>
        <time>2015-04-19T07:42:59Z</time>
      </trkpt>
      <trkpt lat="43.24332" lon="6.3634">
        <ele>379.7</ele>
        <time>2015-04-19T07:43:07Z</time>
      </trkpt>
      <trkpt lat="43.24332" lon="6.36342">
        <ele>379.8</ele>
        <time>2015-04-19T07:43:08Z</time>
      </trkpt>
      <trkpt lat="43.24333" lon="6.36363">
        <ele>377.8</ele>
        <time>2015-04-19T07:43:23Z</time>
      </trkpt>
      <trkpt lat="43.24335" lon="6.36375">
        <ele>376.6</ele>
        <time>2015-04-19T07:43:31Z</time>
      </trkpt>
      <trkpt lat="43.24335" lon="6.36387">
        <ele>375.8</ele>
        <time>2015-04-19T07:43:39Z</time>
      </trkpt>
      <trkpt lat="43.24336" lon="6.36399">
        <ele>374.8</ele>
        <time>2015-04-19T07:43:49Z</time>
      </trkpt>
      <trkpt lat="43.24336" lon="6.36411">
        <ele>373.8</ele>
        <time>2015-04-19T07:43:59Z</time>
      </trkpt>
      <trkpt lat="43.24341" lon="6.36421">
        <ele>372.5</ele>
        <time>2015-04-19T07:44:07Z</time>
      </trkpt>
      <trkpt lat="43.24339" lon="6.36433">
        <ele>372</ele>
        <time>2015-04-19T07:44:15Z</time>
      </trkpt>
      <trkpt lat="43.24339" lon="6.36434">
        <ele>372.1</ele>
        <time>2015-04-19T07:44:16Z</time>
      </trkpt>
      <trkpt lat="43.24335" lon="6.36456">
        <ele>370.2</ele>
        <time>2015-04-19T07:44:32Z</time>
      </trkpt>
      <trkpt lat="43.24329" lon="6.36466">
        <ele>369.8</ele>
        <time>2015-04-19T07:44:51Z</time>
      </trkpt>
      <trkpt lat="43.24326" lon="6.36477">
        <ele>369.2</ele>
        <time>2015-04-19T07:45:30Z</time>
      </trkpt>
      <trkpt lat="43.24327" lon="6.36479">
        <ele>369.2</ele>
        <time>2015-04-19T07:45:31Z</time>
      </trkpt>
      <trkpt lat="43.24322" lon="6.36499">
        <ele>370.1</ele>
        <time>2015-04-19T07:46:08Z</time>
      </trkpt>
      <trkpt lat="43.24321" lon="6.36511">
        <ele>369.4</ele>
        <time>2015-04-19T07:46:21Z</time>
      </trkpt>
      <trkpt lat="43.24321" lon="6.36523">
        <ele>368.2</ele>
        <time>2015-04-19T07:46:38Z</time>
      </trkpt>
      <trkpt lat="43.2432" lon="6.36525">
        <ele>367.6</ele>
        <time>2015-04-19T07:46:39Z</time>
      </trkpt>
      <trkpt lat="43.24322" lon="6.36547">
        <ele>361</ele>
        <time>2015-04-19T07:47:14Z</time>
      </trkpt>
      <trkpt lat="43.24318" lon="6.36556">
        <ele>360.1</ele>
        <time>2015-04-19T07:47:30Z</time>
      </trkpt>
      <trkpt lat="43.24321" lon="6.36568">
        <ele>358.1</ele>
        <time>2015-04-19T07:47:51Z</time>
      </trkpt>
      <trkpt lat="43.24322" lon="6.36569">
        <ele>358.3</ele>
        <time>2015-04-19T07:47:52Z</time>
      </trkpt>
      <trkpt lat="43.24315" lon="6.36585">
        <ele>357.7</ele>
        <time>2015-04-19T07:48:16Z</time>
      </trkpt>
      <trkpt lat="43.24312" lon="6.36596">
        <ele>355.4</ele>
        <time>2015-04-19T07:48:29Z</time>
      </trkpt>
      <trkpt lat="43.24306" lon="6.36604">
        <ele>354.2</ele>
        <time>2015-04-19T07:48:39Z</time>
      </trkpt>
      <trkpt lat="43.243" lon="6.36613">
        <ele>353.6</ele>
        <time>2015-04-19T07:48:52Z</time>
      </trkpt>
      <trkpt lat="43.24299" lon="6.36613">
        <ele>353.5</ele>
        <time>2015-04-19T07:48:53Z</time>
      </trkpt>
      <trkpt lat="43.24293" lon="6.36634">
        <ele>352.4</ele>
        <time>2015-04-19T07:49:30Z</time>
      </trkpt>
      <trkpt lat="43.24285" lon="6.36638">
        <ele>351.6</ele>
        <time>2015-04-19T07:49:49Z</time>
      </trkpt>
      <trkpt lat="43.24281" lon="6.36648">
        <ele>352.3</ele>
        <time>2015-04-19T07:51:02Z</time>
      </trkpt>
      <trkpt lat="43.2428" lon="6.36649">
        <ele>352.2</ele>
        <time>2015-04-19T07:51:03Z</time>
      </trkpt>
      <trkpt lat="43.24275" lon="6.3667">
        <ele>347.8</ele>
        <time>2015-04-19T07:51:58Z</time>
      </trkpt>
      <trkpt lat="43.24267" lon="6.36668">
        <ele>350.6</ele>
        <time>2015-04-19T07:52:58Z</time>
      </trkpt>
      <trkpt lat="43.24265" lon="6.36668">
        <ele>350.8</ele>
        <time>2015-04-19T07:52:59Z</time>
      </trkpt>
      <trkpt lat="43.2425" lon="6.36666">
        <ele>349.8</ele>
        <time>2015-04-19T07:53:23Z</time>
      </trkpt>
      <trkpt lat="43.24241" lon="6.36664">
        <ele>348.8</ele>
        <time>2015-04-19T07:53:33Z</time>
      </trkpt>
      <trkpt lat="43.24233" lon="6.36664">
        <ele>348</ele>
        <time>2015-04-19T07:53:41Z</time>
      </trkpt>
      <trkpt lat="43.24224" lon="6.36665">
        <ele>347</ele>
        <time>2015-04-19T07:53:55Z</time>
      </trkpt>
      <trkpt lat="43.24216" lon="6.3667">
        <ele>347.1</ele>
        <time>2015-04-19T07:54:15Z</time>
      </trkpt>
      <trkpt lat="43.24216" lon="6.3667">
        <ele>346.7</ele>
        <time>2015-04-19T07:54:16Z</time>
      </trkpt>
      <trkpt lat="43.242" lon="6.36682">
        <ele>346.2</ele>
        <time>2015-04-19T07:54:45Z</time>
      </trkpt>
      <trkpt lat="43.24192" lon="6.36685">
        <ele>346.3</ele>
        <time>2015-04-19T07:55:12Z</time>
      </trkpt>
      <trkpt lat="43.24184" lon="6.3669">
        <ele>347.4</ele>
        <time>2015-04-19T07:55:40Z</time>
      </trkpt>
      <trkpt lat="43.24183" lon="6.3669">
        <ele>347.1</ele>
        <time>2015-04-19T07:55:41Z</time>
      </trkpt>
      <trkpt lat="43.24173" lon="6.36696">
        <ele>349.2</ele>
        <time>2015-04-19T07:56:25Z</time>
      </trkpt>
      <trkpt lat="43.24164" lon="6.36696">
        <ele>349.8</ele>
        <time>2015-04-19T07:57:50Z</time>
      </trkpt>
      <trkpt lat="43.24163" lon="6.36697">
        <ele>349.7</ele>
        <time>2015-04-19T07:57:51Z</time>
      </trkpt>
      <trkpt lat="43.24147" lon="6.36696">
        <ele>350.2</ele>
        <time>2015-04-19T07:58:17Z</time>
      </trkpt>
      <trkpt lat="43.24139" lon="6.36698">
        <ele>349.2</ele>
        <time>2015-04-19T07:58:36Z</time>
      </trkpt>
      <trkpt lat="43.2413" lon="6.36698">
        <ele>349.3</ele>
        <time>2015-04-19T07:58:46Z</time>
      </trkpt>
      <trkpt lat="43.24122" lon="6.367">
        <ele>348.8</ele>
        <time>2015-04-19T07:59:46Z</time>
      </trkpt>
      <trkpt lat="43.24121" lon="6.367">
        <ele>348.8</ele>
        <time>2015-04-19T07:59:47Z</time>
      </trkpt>
      <trkpt lat="43.24107" lon="6.36688">
        <ele>346.4</ele>
        <time>2015-04-19T08:01:01Z</time>
      </trkpt>
      <trkpt lat="43.24106" lon="6.36687">
        <ele>346.4</ele>
        <time>2015-04-19T08:01:02Z</time>
      </trkpt>
      <trkpt lat="43.24091" lon="6.36686">
        <ele>346.2</ele>
        <time>2015-04-19T08:02:01Z</time>
      </trkpt>
      <trkpt lat="43.24096" lon="6.36676">
        <ele>338.3</ele>
        <time>2015-04-19T08:04:21Z</time>
      </trkpt>
      <trkpt lat="43.24096" lon="6.36676">
        <ele>338.2</ele>
        <time>2015-04-19T08:04:22Z</time>
      </trkpt>
      <trkpt lat="43.24079" lon="6.36671">
        <ele>340.3</ele>
        <time>2015-04-19T08:05:58Z</time>
      </trkpt>
      <trkpt lat="43.24079" lon="6.36672">
        <ele>340.1</ele>
        <time>2015-04-19T08:05:59Z</time>
      </trkpt>
      <trkpt lat="43.24064" lon="6.36679">
        <ele>336.5</ele>
        <time>2015-04-19T08:06:56Z</time>
      </trkpt>
      <trkpt lat="43.24056" lon="6.36675">
        <ele>332.8</ele>
        <time>2015-04-19T08:07:28Z</time>
      </trkpt>
      <trkpt lat="43.24055" lon="6.36675">
        <ele>333</ele>
        <time>2015-04-19T08:07:29Z</time>
      </trkpt>
      <trkpt lat="43.24047" lon="6.36692">
        <ele>325.2</ele>
        <time>2015-04-19T08:09:45Z</time>
      </trkpt>
      <trkpt lat="43.24046" lon="6.36693">
        <ele>325.1</ele>
        <time>2015-04-19T08:09:46Z</time>
      </trkpt>
      <trkpt lat="43.24038" lon="6.36689">
        <ele>325.7</ele>
        <time>2015-04-19T08:11:36Z</time>
      </trkpt>
      <trkpt lat="43.24021" lon="6.36688">
        <ele>325.6</ele>
        <time>2015-04-19T08:12:09Z</time>
      </trkpt>
      <trkpt lat="43.24013" lon="6.36691">
        <ele>320.7</ele>
        <time>2015-04-19T08:13:13Z</time>
      </trkpt>
      <trkpt lat="43.24012" lon="6.36691">
        <ele>320.7</ele>
        <time>2015-04-19T08:13:14Z</time>
      </trkpt>
      <trkpt lat="43.24004" lon="6.36686">
        <ele>322.9</ele>
        <time>2015-04-19T08:14:16Z</time>
      </trkpt>
      <trkpt lat="43.23999" lon="6.36696">
        <ele>316.8</ele>
        <time>2015-04-19T08:15:51Z</time>
      </trkpt>
      <trkpt lat="43.23984" lon="6.36707">
        <ele>312.5</ele>
        <time>2015-04-19T08:17:39Z</time>
      </trkpt>
      <trkpt lat="43.23983" lon="6.36707">
        <ele>312.3</ele>
        <time>2015-04-19T08:17:40Z</time>
      </trkpt>
      <trkpt lat="43.2399" lon="6.3672">
        <ele>306.9</ele>
        <time>2015-04-19T08:19:27Z</time>
      </trkpt>
      <trkpt lat="43.23991" lon="6.3672">
        <ele>306.8</ele>
        <time>2015-04-19T08:19:28Z</time>
      </trkpt>
      <trkpt lat="43.23981" lon="6.36732">
        <ele>302.6</ele>
        <time>2015-04-19T08:20:27Z</time>
      </trkpt>
      <trkpt lat="43.23973" lon="6.36732">
        <ele>301.3</ele>
        <time>2015-04-19T08:23:44Z</time>
      </trkpt>
      <trkpt lat="43.23972" lon="6.36732">
        <ele>301.1</ele>
        <time>2015-04-19T08:23:45Z</time>
      </trkpt>
      <trkpt lat="43.23956" lon="6.36738">
        <ele>302.1</ele>
        <time>2015-04-19T08:24:08Z</time>
      </trkpt>
      <trkpt lat="43.23948" lon="6.36739">
        <ele>302</ele>
        <time>2015-04-19T08:24:17Z</time>
      </trkpt>
      <trkpt lat="43.23942" lon="6.36746">
        <ele>301.2</ele>
        <time>2015-04-19T08:24:34Z</time>
      </trkpt>
      <trkpt lat="43.23936" lon="6.36754">
        <ele>300</ele>
        <time>2015-04-19T08:24:47Z</time>
      </trkpt>
      <trkpt lat="43.23935" lon="6.36755">
        <ele>300</ele>
        <time>2015-04-19T08:24:48Z</time>
      </trkpt>
      <trkpt lat="43.23921" lon="6.36767">
        <ele>299.3</ele>
        <time>2015-04-19T08:25:10Z</time>
      </trkpt>
      <trkpt lat="43.23913" lon="6.36772">
        <ele>299.8</ele>
        <time>2015-04-19T08:25:20Z</time>
      </trkpt>
      <trkpt lat="43.23905" lon="6.36777">
        <ele>300.2</ele>
        <time>2015-04-19T08:25:30Z</time>
      </trkpt>
      <trkpt lat="43.23898" lon="6.36785">
        <ele>297.2</ele>
        <time>2015-04-19T08:25:46Z</time>
      </trkpt>
      <trkpt lat="43.23891" lon="6.36793">
        <ele>296.2</ele>
        <time>2015-04-19T08:26:20Z</time>
      </trkpt>
      <trkpt lat="43.23891" lon="6.36793">
        <ele>296.2</ele>
        <time>2015-04-19T08:26:21Z</time>
      </trkpt>
      <trkpt lat="43.23874" lon="6.36798">
        <ele>289.6</ele>
        <time>2015-04-19T08:28:02Z</time>
      </trkpt>
      <trkpt lat="43.23874" lon="6.36798">
        <ele>289.5</ele>
        <time>2015-04-19T08:28:03Z</time>
      </trkpt>
      <trkpt lat="43.23867" lon="6.36806">
        <ele>286.2</ele>
        <time>2015-04-19T08:29:56Z</time>
      </trkpt>
      <trkpt lat="43.23862" lon="6.36815">
        <ele>279</ele>
        <time>2015-04-19T08:31:38Z</time>
      </trkpt>
      <trkpt lat="43.23855" lon="6.36835">
        <ele>277</ele>
        <time>2015-04-19T08:33:29Z</time>
      </trkpt>
      <trkpt lat="43.23855" lon="6.36836">
        <ele>277</ele>
        <time>2015-04-19T08:33:30Z</time>
      </trkpt>
      <trkpt lat="43.23844" lon="6.36852">
        <ele>277.7</ele>
        <time>2015-04-19T08:34:20Z</time>
      </trkpt>
      <trkpt lat="43.23836" lon="6.36858">
        <ele>282.6</ele>
        <time>2015-04-19T08:35:58Z</time>
      </trkpt>
      <trkpt lat="43.23836" lon="6.36859">
        <ele>282.7</ele>
        <time>2015-04-19T08:35:59Z</time>
      </trkpt>
      <trkpt lat="43.23823" lon="6.36873">
        <ele>285.6</ele>
        <time>2015-04-19T08:36:53Z</time>
      </trkpt>
      <trkpt lat="43.23816" lon="6.36878">
        <ele>285.1</ele>
        <time>2015-04-19T08:37:04Z</time>
      </trkpt>
      <trkpt lat="43.23815" lon="6.36879">
        <ele>285</ele>
        <time>2015-04-19T08:37:05Z</time>
      </trkpt>
      <trkpt lat="43.23801" lon="6.3689">
        <ele>286.5</ele>
        <time>2015-04-19T08:37:58Z</time>
      </trkpt>
      <trkpt lat="43.23794" lon="6.36898">
        <ele>291.8</ele>
        <time>2015-04-19T08:38:43Z</time>
      </trkpt>
      <trkpt lat="43.23794" lon="6.36898">
        <ele>292</ele>
        <time>2015-04-19T08:38:44Z</time>
      </trkpt>
      <trkpt lat="43.23777" lon="6.36901">
        <ele>295.8</ele>
        <time>2015-04-19T08:39:45Z</time>
      </trkpt>
      <trkpt lat="43.23777" lon="6.36901">
        <ele>295.5</ele>
        <time>2015-04-19T08:39:46Z</time>
      </trkpt>
      <trkpt lat="43.2376" lon="6.36905">
        <ele>303.6</ele>
        <time>2015-04-19T08:41:11Z</time>
      </trkpt>
      <trkpt lat="43.2376" lon="6.36905">
        <ele>303.9</ele>
        <time>2015-04-19T08:41:12Z</time>
      </trkpt>
      <trkpt lat="43.23744" lon="6.36914">
        <ele>304.7</ele>
        <time>2015-04-19T08:42:10Z</time>
      </trkpt>
      <trkpt lat="43.23735" lon="6.36916">
        <ele>303.9</ele>
        <time>2015-04-19T08:43:18Z</time>
      </trkpt>
      <trkpt lat="43.23735" lon="6.36916">
        <ele>304</ele>
        <time>2015-04-19T08:43:19Z</time>
      </trkpt>
      <trkpt lat="43.23727" lon="6.36937">
        <ele>310.7</ele>
        <time>2015-04-19T08:44:05Z</time>
      </trkpt>
      <trkpt lat="43.23721" lon="6.36945">
        <ele>313.9</ele>
        <time>2015-04-19T08:44:24Z</time>
      </trkpt>
      <trkpt lat="43.2372" lon="6.36945">
        <ele>313.9</ele>
        <time>2015-04-19T08:44:25Z</time>
      </trkpt>
      <trkpt lat="43.23715" lon="6.36955">
        <ele>315.9</ele>
        <time>2015-04-19T08:46:20Z</time>
      </trkpt>
      <trkpt lat="43.237" lon="6.36959">
        <ele>322.9</ele>
        <time>2015-04-19T08:47:03Z</time>
      </trkpt>
      <trkpt lat="43.23692" lon="6.36964">
        <ele>328.5</ele>
        <time>2015-04-19T08:47:33Z</time>
      </trkpt>
      <trkpt lat="43.23691" lon="6.36964">
        <ele>328.4</ele>
        <time>2015-04-19T08:47:34Z</time>
      </trkpt>
      <trkpt lat="43.23678" lon="6.3698">
        <ele>335</ele>
        <time>2015-04-19T08:48:21Z</time>
      </trkpt>
      <trkpt lat="43.23673" lon="6.36989">
        <ele>337.1</ele>
        <time>2015-04-19T08:48:40Z</time>
      </trkpt>
      <trkpt lat="43.23673" lon="6.3699">
        <ele>337.2</ele>
        <time>2015-04-19T08:48:41Z</time>
      </trkpt>
      <trkpt lat="43.23665" lon="6.37009">
        <ele>340.1</ele>
        <time>2015-04-19T08:49:00Z</time>
      </trkpt>
      <trkpt lat="43.23663" lon="6.37021">
        <ele>339.5</ele>
        <time>2015-04-19T08:49:07Z</time>
      </trkpt>
      <trkpt lat="43.23658" lon="6.37029">
        <ele>339.1</ele>
        <time>2015-04-19T08:49:16Z</time>
      </trkpt>
      <trkpt lat="43.23656" lon="6.3704">
        <ele>339.2</ele>
        <time>2015-04-19T08:49:21Z</time>
      </trkpt>
      <trkpt lat="43.2365" lon="6.37047">
        <ele>337.6</ele>
        <time>2015-04-19T08:49:26Z</time>
      </trkpt>
      <trkpt lat="43.23648" lon="6.37059">
        <ele>335.6</ele>
        <time>2015-04-19T08:49:36Z</time>
      </trkpt>
      <trkpt lat="43.23642" lon="6.37068">
        <ele>334.6</ele>
        <time>2015-04-19T08:49:44Z</time>
      </trkpt>
      <trkpt lat="43.23642" lon="6.37069">
        <ele>334.3</ele>
        <time>2015-04-19T08:49:45Z</time>
      </trkpt>
      <trkpt lat="43.23632" lon="6.37087">
        <ele>331.9</ele>
        <time>2015-04-19T08:50:08Z</time>
      </trkpt>
      <trkpt lat="43.23632" lon="6.371">
        <ele>330</ele>
        <time>2015-04-19T08:50:49Z</time>
      </trkpt>
      <trkpt lat="43.23632" lon="6.371">
        <ele>330.2</ele>
        <time>2015-04-19T08:50:50Z</time>
      </trkpt>
      <trkpt lat="43.23618" lon="6.37114">
        <ele>327.7</ele>
        <time>2015-04-19T08:51:15Z</time>
      </trkpt>
      <trkpt lat="43.23611" lon="6.37123">
        <ele>326.8</ele>
        <time>2015-04-19T08:51:30Z</time>
      </trkpt>
      <trkpt lat="43.23604" lon="6.3713">
        <ele>326.6</ele>
        <time>2015-04-19T08:51:57Z</time>
      </trkpt>
      <trkpt lat="43.23604" lon="6.3713">
        <ele>326.6</ele>
        <time>2015-04-19T08:51:58Z</time>
      </trkpt>
      <trkpt lat="43.23587" lon="6.37128">
        <ele>325.4</ele>
        <time>2015-04-19T08:52:28Z</time>
      </trkpt>
      <trkpt lat="43.23579" lon="6.37126">
        <ele>325.6</ele>
        <time>2015-04-19T08:52:38Z</time>
      </trkpt>
      <trkpt lat="43.23571" lon="6.37126">
        <ele>325.2</ele>
        <time>2015-04-19T08:52:45Z</time>
      </trkpt>
      <trkpt lat="43.23562" lon="6.37128">
        <ele>324.9</ele>
        <time>2015-04-19T08:52:58Z</time>
      </trkpt>
      <trkpt lat="43.23561" lon="6.37129">
        <ele>324.8</ele>
        <time>2015-04-19T08:52:59Z</time>
      </trkpt>
      <trkpt lat="43.2357" lon="6.37136">
        <ele>324.4</ele>
        <time>2015-04-19T08:54:23Z</time>
      </trkpt>
      <trkpt lat="43.2356" lon="6.37132">
        <ele>324.2</ele>
        <time>2015-04-19T08:57:36Z</time>
      </trkpt>
      <trkpt lat="43.23553" lon="6.37129">
        <ele>325.3</ele>
        <time>2015-04-19T08:58:53Z</time>
      </trkpt>
      <trkpt lat="43.23551" lon="6.37149">
        <ele>325.4</ele>
        <time>2015-04-19T08:59:22Z</time>
      </trkpt>
      <trkpt lat="43.23549" lon="6.3716">
        <ele>324.9</ele>
        <time>2015-04-19T08:59:37Z</time>
      </trkpt>
      <trkpt lat="43.23547" lon="6.37171">
        <ele>324.4</ele>
        <time>2015-04-19T08:59:52Z</time>
      </trkpt>
      <trkpt lat="43.23542" lon="6.37181">
        <ele>323.2</ele>
        <time>2015-04-19T09:00:08Z</time>
      </trkpt>
      <trkpt lat="43.23542" lon="6.37182">
        <ele>323.3</ele>
        <time>2015-04-19T09:00:09Z</time>
      </trkpt>
      <trkpt lat="43.23537" lon="6.37204">
        <ele>321.2</ele>
        <time>2015-04-19T09:00:39Z</time>
      </trkpt>
      <trkpt lat="43.23533" lon="6.37214">
        <ele>319.2</ele>
        <time>2015-04-19T09:00:50Z</time>
      </trkpt>
      <trkpt lat="43.23528" lon="6.37223">
        <ele>318.1</ele>
        <time>2015-04-19T09:01:01Z</time>
      </trkpt>
      <trkpt lat="43.23525" lon="6.37233">
        <ele>317.3</ele>
        <time>2015-04-19T09:01:07Z</time>
      </trkpt>
      <trkpt lat="43.23522" lon="6.37244">
        <ele>317</ele>
        <time>2015-04-19T09:01:13Z</time>
      </trkpt>
      <trkpt lat="43.23522" lon="6.37245">
        <ele>317.1</ele>
        <time>2015-04-19T09:01:14Z</time>
      </trkpt>
      <trkpt lat="43.23513" lon="6.37264">
        <ele>315.2</ele>
        <time>2015-04-19T09:01:39Z</time>
      </trkpt>
      <trkpt lat="43.23512" lon="6.37276">
        <ele>314.6</ele>
        <time>2015-04-19T09:01:47Z</time>
      </trkpt>
      <trkpt lat="43.23512" lon="6.37287">
        <ele>313.9</ele>
        <time>2015-04-19T09:02:03Z</time>
      </trkpt>
      <trkpt lat="43.23509" lon="6.37299">
        <ele>312.8</ele>
        <time>2015-04-19T09:02:14Z</time>
      </trkpt>
      <trkpt lat="43.23509" lon="6.373">
        <ele>312.8</ele>
        <time>2015-04-19T09:02:15Z</time>
      </trkpt>
      <trkpt lat="43.23502" lon="6.37319">
        <ele>311</ele>
        <time>2015-04-19T09:02:35Z</time>
      </trkpt>
      <trkpt lat="43.23504" lon="6.3733">
        <ele>310.4</ele>
        <time>2015-04-19T09:02:42Z</time>
      </trkpt>
      <trkpt lat="43.23504" lon="6.37341">
        <ele>309.6</ele>
        <time>2015-04-19T09:02:49Z</time>
      </trkpt>
      <trkpt lat="43.23509" lon="6.37351">
        <ele>309.2</ele>
        <time>2015-04-19T09:02:56Z</time>
      </trkpt>
      <trkpt lat="43.23508" lon="6.37362">
        <ele>309.1</ele>
        <time>2015-04-19T09:03:04Z</time>
      </trkpt>
      <trkpt lat="43.2351" lon="6.37372">
        <ele>308.8</ele>
        <time>2015-04-19T09:03:09Z</time>
      </trkpt>
      <trkpt lat="43.23512" lon="6.37383">
        <ele>308.7</ele>
        <time>2015-04-19T09:03:15Z</time>
      </trkpt>
      <trkpt lat="43.23512" lon="6.37385">
        <ele>308.6</ele>
        <time>2015-04-19T09:03:16Z</time>
      </trkpt>
      <trkpt lat="43.23521" lon="6.37402">
        <ele>308.8</ele>
        <time>2015-04-19T09:03:31Z</time>
      </trkpt>
      <trkpt lat="43.23526" lon="6.37412">
        <ele>307.8</ele>
        <time>2015-04-19T09:03:39Z</time>
      </trkpt>
      <trkpt lat="43.23529" lon="6.37422">
        <ele>307.3</ele>
        <time>2015-04-19T09:03:46Z</time>
      </trkpt>
      <trkpt lat="43.23531" lon="6.37432">
        <ele>307</ele>
        <time>2015-04-19T09:03:53Z</time>
      </trkpt>
      <trkpt lat="43.23532" lon="6.37444">
        <ele>306.5</ele>
        <time>2015-04-19T09:04:01Z</time>
      </trkpt>
      <trkpt lat="43.23533" lon="6.37456">
        <ele>305.7</ele>
        <time>2015-04-19T09:04:11Z</time>
      </trkpt>
      <trkpt lat="43.23538" lon="6.37465">
        <ele>306.9</ele>
        <time>2015-04-19T09:04:18Z</time>
      </trkpt>
      <trkpt lat="43.23538" lon="6.37466">
        <ele>306.5</ele>
        <time>2015-04-19T09:04:19Z</time>
      </trkpt>
      <trkpt lat="43.23541" lon="6.37488">
        <ele>305.5</ele>
        <time>2015-04-19T09:04:37Z</time>
      </trkpt>
      <trkpt lat="43.23539" lon="6.37499">
        <ele>304.9</ele>
        <time>2015-04-19T09:04:52Z</time>
      </trkpt>
      <trkpt lat="43.23544" lon="6.37509">
        <ele>304.4</ele>
        <time>2015-04-19T09:05:04Z</time>
      </trkpt>
      <trkpt lat="43.23553" lon="6.37509">
        <ele>305</ele>
        <time>2015-04-19T09:05:16Z</time>
      </trkpt>
      <trkpt lat="43.2356" lon="6.37515">
        <ele>304.3</ele>
        <time>2015-04-19T09:05:24Z</time>
      </trkpt>
      <trkpt lat="43.23562" lon="6.37516">
        <ele>304.1</ele>
        <time>2015-04-19T09:05:25Z</time>
      </trkpt>
      <trkpt lat="43.23576" lon="6.3752">
        <ele>304</ele>
        <time>2015-04-19T09:05:38Z</time>
      </trkpt>
      <trkpt lat="43.23583" lon="6.37525">
        <ele>303.3</ele>
        <time>2015-04-19T09:05:46Z</time>
      </trkpt>
      <trkpt lat="43.23591" lon="6.37531">
        <ele>303.1</ele>
        <time>2015-04-19T09:05:53Z</time>
      </trkpt>
      <trkpt lat="43.23596" lon="6.37539">
        <ele>301.7</ele>
        <time>2015-04-19T09:06:01Z</time>
      </trkpt>
      <trkpt lat="43.23598" lon="6.37551">
        <ele>301.2</ele>
        <time>2015-04-19T09:06:10Z</time>
      </trkpt>
      <trkpt lat="43.236" lon="6.37563">
        <ele>300.3</ele>
        <time>2015-04-19T09:06:18Z</time>
      </trkpt>
      <trkpt lat="43.23607" lon="6.3757">
        <ele>300.3</ele>
        <time>2015-04-19T09:06:28Z</time>
      </trkpt>
      <trkpt lat="43.23608" lon="6.37571">
        <ele>300.3</ele>
        <time>2015-04-19T09:06:29Z</time>
      </trkpt>
      <trkpt lat="43.2362" lon="6.37581">
        <ele>300.7</ele>
        <time>2015-04-19T09:06:43Z</time>
      </trkpt>
      <trkpt lat="43.23626" lon="6.37589">
        <ele>300.1</ele>
        <time>2015-04-19T09:06:51Z</time>
      </trkpt>
      <trkpt lat="43.23631" lon="6.37597">
        <ele>299.6</ele>
        <time>2015-04-19T09:06:57Z</time>
      </trkpt>
      <trkpt lat="43.23636" lon="6.37606">
        <ele>300.1</ele>
        <time>2015-04-19T09:07:04Z</time>
      </trkpt>
      <trkpt lat="43.23641" lon="6.37616">
        <ele>300.4</ele>
        <time>2015-04-19T09:07:19Z</time>
      </trkpt>
      <trkpt lat="43.23649" lon="6.3762">
        <ele>300.5</ele>
        <time>2015-04-19T09:07:27Z</time>
      </trkpt>
      <trkpt lat="43.23657" lon="6.37626">
        <ele>300.7</ele>
        <time>2015-04-19T09:07:36Z</time>
      </trkpt>
      <trkpt lat="43.23658" lon="6.37626">
        <ele>300.8</ele>
        <time>2015-04-19T09:07:37Z</time>
      </trkpt>
      <trkpt lat="43.23668" lon="6.37644">
        <ele>300.8</ele>
        <time>2015-04-19T09:07:55Z</time>
      </trkpt>
      <trkpt lat="43.23668" lon="6.37654">
        <ele>298.7</ele>
        <time>2015-04-19T09:08:06Z</time>
      </trkpt>
      <trkpt lat="43.23669" lon="6.37665">
        <ele>298.6</ele>
        <time>2015-04-19T09:08:13Z</time>
      </trkpt>
      <trkpt lat="43.23667" lon="6.37676">
        <ele>297</ele>
        <time>2015-04-19T09:08:23Z</time>
      </trkpt>
      <trkpt lat="43.23663" lon="6.37686">
        <ele>296.2</ele>
        <time>2015-04-19T09:08:32Z</time>
      </trkpt>
      <trkpt lat="43.23662" lon="6.37698">
        <ele>294.9</ele>
        <time>2015-04-19T09:08:43Z</time>
      </trkpt>
      <trkpt lat="43.23661" lon="6.37699">
        <ele>294.6</ele>
        <time>2015-04-19T09:08:44Z</time>
      </trkpt>
      <trkpt lat="43.23653" lon="6.37718">
        <ele>291.9</ele>
        <time>2015-04-19T09:09:09Z</time>
      </trkpt>
      <trkpt lat="43.23654" lon="6.3773">
        <ele>291.5</ele>
        <time>2015-04-19T09:09:25Z</time>
      </trkpt>
      <trkpt lat="43.23653" lon="6.37742">
        <ele>290.8</ele>
        <time>2015-04-19T09:09:37Z</time>
      </trkpt>
      <trkpt lat="43.23657" lon="6.37753">
        <ele>290.3</ele>
        <time>2015-04-19T09:09:44Z</time>
      </trkpt>
      <trkpt lat="43.23657" lon="6.37755">
        <ele>290.2</ele>
        <time>2015-04-19T09:09:45Z</time>
      </trkpt>
      <trkpt lat="43.23667" lon="6.37772">
        <ele>289.5</ele>
        <time>2015-04-19T09:10:27Z</time>
      </trkpt>
      <trkpt lat="43.23674" lon="6.3778">
        <ele>288.9</ele>
        <time>2015-04-19T09:10:40Z</time>
      </trkpt>
      <trkpt lat="43.23677" lon="6.3779">
        <ele>288.9</ele>
        <time>2015-04-19T09:10:52Z</time>
      </trkpt>
      <trkpt lat="43.23678" lon="6.37791">
        <ele>288.9</ele>
        <time>2015-04-19T09:10:53Z</time>
      </trkpt>
      <trkpt lat="43.23687" lon="6.37808">
        <ele>289</ele>
        <time>2015-04-19T09:11:11Z</time>
      </trkpt>
      <trkpt lat="43.23695" lon="6.37813">
        <ele>288.6</ele>
        <time>2015-04-19T09:11:22Z</time>
      </trkpt>
      <trkpt lat="43.23701" lon="6.37819">
        <ele>288</ele>
        <time>2015-04-19T09:11:32Z</time>
      </trkpt>
      <trkpt lat="43.23705" lon="6.37829">
        <ele>287.7</ele>
        <time>2015-04-19T09:11:42Z</time>
      </trkpt>
      <trkpt lat="43.23709" lon="6.37839">
        <ele>286.9</ele>
        <time>2015-04-19T09:11:50Z</time>
      </trkpt>
      <trkpt lat="43.2371" lon="6.37851">
        <ele>286.5</ele>
        <time>2015-04-19T09:12:16Z</time>
      </trkpt>
      <trkpt lat="43.23711" lon="6.37851">
        <ele>286.4</ele>
        <time>2015-04-19T09:12:17Z</time>
      </trkpt>
      <trkpt lat="43.23712" lon="6.3787">
        <ele>285.7</ele>
        <time>2015-04-19T09:12:47Z</time>
      </trkpt>
      <trkpt lat="43.23719" lon="6.37877">
        <ele>286</ele>
        <time>2015-04-19T09:12:54Z</time>
      </trkpt>
      <trkpt lat="43.23724" lon="6.37886">
        <ele>286</ele>
        <time>2015-04-19T09:13:04Z</time>
      </trkpt>
      <trkpt lat="43.2373" lon="6.37895">
        <ele>284.9</ele>
        <time>2015-04-19T09:13:19Z</time>
      </trkpt>
      <trkpt lat="43.23732" lon="6.37895">
        <ele>284.9</ele>
        <time>2015-04-19T09:13:20Z</time>
      </trkpt>
      <trkpt lat="43.23744" lon="6.37907">
        <ele>284.5</ele>
        <time>2015-04-19T09:13:33Z</time>
      </trkpt>
      <trkpt lat="43.23749" lon="6.37916">
        <ele>284</ele>
        <time>2015-04-19T09:13:42Z</time>
      </trkpt>
      <trkpt lat="43.23755" lon="6.37924">
        <ele>283.3</ele>
        <time>2015-04-19T09:13:53Z</time>
      </trkpt>
      <trkpt lat="43.23759" lon="6.37935">
        <ele>283</ele>
        <time>2015-04-19T09:14:09Z</time>
      </trkpt>
      <trkpt lat="43.23765" lon="6.37941">
        <ele>282.5</ele>
        <time>2015-04-19T09:14:15Z</time>
      </trkpt>
      <trkpt lat="43.23771" lon="6.3795">
        <ele>281.8</ele>
        <time>2015-04-19T09:14:22Z</time>
      </trkpt>
      <trkpt lat="43.23772" lon="6.37951">
        <ele>281.9</ele>
        <time>2015-04-19T09:14:23Z</time>
      </trkpt>
      <trkpt lat="43.23784" lon="6.37964">
        <ele>281.7</ele>
        <time>2015-04-19T09:14:36Z</time>
      </trkpt>
      <trkpt lat="43.23785" lon="6.37975">
        <ele>281.6</ele>
        <time>2015-04-19T09:14:49Z</time>
      </trkpt>
      <trkpt lat="43.23786" lon="6.37986">
        <ele>280.4</ele>
        <time>2015-04-19T09:15:05Z</time>
      </trkpt>
      <trkpt lat="43.23789" lon="6.37997">
        <ele>279.8</ele>
        <time>2015-04-19T09:15:23Z</time>
      </trkpt>
      <trkpt lat="43.23789" lon="6.37998">
        <ele>279.9</ele>
        <time>2015-04-19T09:15:24Z</time>
      </trkpt>
      <trkpt lat="43.23794" lon="6.38019">
        <ele>279</ele>
        <time>2015-04-19T09:15:59Z</time>
      </trkpt>
      <trkpt lat="43.23792" lon="6.38031">
        <ele>277.3</ele>
        <time>2015-04-19T09:16:20Z</time>
      </trkpt>
      <trkpt lat="43.23793" lon="6.38042">
        <ele>277</ele>
        <time>2015-04-19T09:16:35Z</time>
      </trkpt>
      <trkpt lat="43.23793" lon="6.38043">
        <ele>276.8</ele>
        <time>2015-04-19T09:16:36Z</time>
      </trkpt>
      <trkpt lat="43.23799" lon="6.38064">
        <ele>274.2</ele>
        <time>2015-04-19T09:17:11Z</time>
      </trkpt>
      <trkpt lat="43.23806" lon="6.38071">
        <ele>274.6</ele>
        <time>2015-04-19T09:17:38Z</time>
      </trkpt>
      <trkpt lat="43.23806" lon="6.38072">
        <ele>274.4</ele>
        <time>2015-04-19T09:17:39Z</time>
      </trkpt>
      <trkpt lat="43.23809" lon="6.38095">
        <ele>273.3</ele>
        <time>2015-04-19T09:18:05Z</time>
      </trkpt>
      <trkpt lat="43.23814" lon="6.38104">
        <ele>273.4</ele>
        <time>2015-04-19T09:18:13Z</time>
      </trkpt>
      <trkpt lat="43.23817" lon="6.38115">
        <ele>273.3</ele>
        <time>2015-04-19T09:18:24Z</time>
      </trkpt>
      <trkpt lat="43.23818" lon="6.38127">
        <ele>272.9</ele>
        <time>2015-04-19T09:18:36Z</time>
      </trkpt>
      <trkpt lat="43.23818" lon="6.38139">
        <ele>271.8</ele>
        <time>2015-04-19T09:18:46Z</time>
      </trkpt>
      <trkpt lat="43.23819" lon="6.3814">
        <ele>271.6</ele>
        <time>2015-04-19T09:18:47Z</time>
      </trkpt>
      <trkpt lat="43.23825" lon="6.3816">
        <ele>270.5</ele>
        <time>2015-04-19T09:19:01Z</time>
      </trkpt>
      <trkpt lat="43.23829" lon="6.38169">
        <ele>269</ele>
        <time>2015-04-19T09:19:14Z</time>
      </trkpt>
      <trkpt lat="43.23835" lon="6.38177">
        <ele>268.4</ele>
        <time>2015-04-19T09:19:26Z</time>
      </trkpt>
      <trkpt lat="43.23839" lon="6.38186">
        <ele>268.1</ele>
        <time>2015-04-19T09:19:32Z</time>
      </trkpt>
      <trkpt lat="43.23843" lon="6.38197">
        <ele>268</ele>
        <time>2015-04-19T09:19:39Z</time>
      </trkpt>
      <trkpt lat="43.23845" lon="6.38208">
        <ele>267.4</ele>
        <time>2015-04-19T09:19:46Z</time>
      </trkpt>
      <trkpt lat="43.23848" lon="6.38218">
        <ele>267.2</ele>
        <time>2015-04-19T09:19:54Z</time>
      </trkpt>
      <trkpt lat="43.23849" lon="6.38219">
        <ele>267.3</ele>
        <time>2015-04-19T09:19:55Z</time>
      </trkpt>
      <trkpt lat="43.23858" lon="6.38235">
        <ele>265.6</ele>
        <time>2015-04-19T09:20:17Z</time>
      </trkpt>
      <trkpt lat="43.23864" lon="6.38244">
        <ele>265.5</ele>
        <time>2015-04-19T09:20:21Z</time>
      </trkpt>
      <trkpt lat="43.23867" lon="6.38254">
        <ele>265.9</ele>
        <time>2015-04-19T09:20:29Z</time>
      </trkpt>
      <trkpt lat="43.23871" lon="6.38262">
        <ele>265.9</ele>
        <time>2015-04-19T09:20:37Z</time>
      </trkpt>
      <trkpt lat="43.23874" lon="6.38272">
        <ele>265.6</ele>
        <time>2015-04-19T09:20:44Z</time>
      </trkpt>
      <trkpt lat="43.23872" lon="6.38284">
        <ele>265.1</ele>
        <time>2015-04-19T09:20:52Z</time>
      </trkpt>
      <trkpt lat="43.23868" lon="6.38295">
        <ele>263.2</ele>
        <time>2015-04-19T09:21:07Z</time>
      </trkpt>
      <trkpt lat="43.23868" lon="6.38296">
        <ele>263.3</ele>
        <time>2015-04-19T09:21:08Z</time>
      </trkpt>
      <trkpt lat="43.23866" lon="6.38318">
        <ele>264.2</ele>
        <time>2015-04-19T09:21:25Z</time>
      </trkpt>
      <trkpt lat="43.23866" lon="6.3833">
        <ele>263.9</ele>
        <time>2015-04-19T09:21:35Z</time>
      </trkpt>
      <trkpt lat="43.23869" lon="6.38342">
        <ele>263.2</ele>
        <time>2015-04-19T09:21:47Z</time>
      </trkpt>
      <trkpt lat="43.23864" lon="6.38352">
        <ele>263.5</ele>
        <time>2015-04-19T09:21:57Z</time>
      </trkpt>
      <trkpt lat="43.23872" lon="6.38358">
        <ele>263.4</ele>
        <time>2015-04-19T09:22:27Z</time>
      </trkpt>
      <trkpt lat="43.23872" lon="6.38358">
        <ele>263.3</ele>
        <time>2015-04-19T09:22:28Z</time>
      </trkpt>
      <trkpt lat="43.23888" lon="6.38357">
        <ele>262.3</ele>
        <time>2015-04-19T09:23:24Z</time>
      </trkpt>
      <trkpt lat="43.23897" lon="6.38358">
        <ele>261.9</ele>
        <time>2015-04-19T09:23:33Z</time>
      </trkpt>
      <trkpt lat="43.23898" lon="6.38356">
        <ele>262</ele>
        <time>2015-04-19T09:23:34Z</time>
      </trkpt>
      <trkpt lat="43.2391" lon="6.3837">
        <ele>261.2</ele>
        <time>2015-04-19T09:23:51Z</time>
      </trkpt>
      <trkpt lat="43.23917" lon="6.38377">
        <ele>260.5</ele>
        <time>2015-04-19T09:23:58Z</time>
      </trkpt>
      <trkpt lat="43.23923" lon="6.38384">
        <ele>260.1</ele>
        <time>2015-04-19T09:24:07Z</time>
      </trkpt>
      <trkpt lat="43.2393" lon="6.38393">
        <ele>259.4</ele>
        <time>2015-04-19T09:24:17Z</time>
      </trkpt>
      <trkpt lat="43.23936" lon="6.38401">
        <ele>259</ele>
        <time>2015-04-19T09:24:26Z</time>
      </trkpt>
      <trkpt lat="43.23941" lon="6.38409">
        <ele>258.5</ele>
        <time>2015-04-19T09:24:34Z</time>
      </trkpt>
      <trkpt lat="43.23942" lon="6.38411">
        <ele>258.4</ele>
        <time>2015-04-19T09:24:35Z</time>
      </trkpt>
      <trkpt lat="43.23956" lon="6.38422">
        <ele>258.2</ele>
        <time>2015-04-19T09:24:51Z</time>
      </trkpt>
      <trkpt lat="43.23963" lon="6.38426">
        <ele>258.9</ele>
        <time>2015-04-19T09:25:03Z</time>
      </trkpt>
      <trkpt lat="43.23969" lon="6.38434">
        <ele>257.7</ele>
        <time>2015-04-19T09:25:12Z</time>
      </trkpt>
      <trkpt lat="43.23973" lon="6.38444">
        <ele>256.5</ele>
        <time>2015-04-19T09:25:22Z</time>
      </trkpt>
      <trkpt lat="43.23977" lon="6.38455">
        <ele>256.4</ele>
        <time>2015-04-19T09:25:31Z</time>
      </trkpt>
      <trkpt lat="43.23979" lon="6.38466">
        <ele>256</ele>
        <time>2015-04-19T09:25:44Z</time>
      </trkpt>
      <trkpt lat="43.23979" lon="6.38467">
        <ele>256</ele>
        <time>2015-04-19T09:25:45Z</time>
      </trkpt>
      <trkpt lat="43.23979" lon="6.3849">
        <ele>255</ele>
        <time>2015-04-19T09:26:04Z</time>
      </trkpt>
      <trkpt lat="43.23984" lon="6.385">
        <ele>254.2</ele>
        <time>2015-04-19T09:26:14Z</time>
      </trkpt>
      <trkpt lat="43.23986" lon="6.3851">
        <ele>253.8</ele>
        <time>2015-04-19T09:26:21Z</time>
      </trkpt>
      <trkpt lat="43.23986" lon="6.38521">
        <ele>253</ele>
        <time>2015-04-19T09:26:27Z</time>
      </trkpt>
      <trkpt lat="43.23984" lon="6.38532">
        <ele>252.6</ele>
        <time>2015-04-19T09:26:34Z</time>
      </trkpt>
      <trkpt lat="43.23985" lon="6.38544">
        <ele>251.9</ele>
        <time>2015-04-19T09:26:41Z</time>
      </trkpt>
      <trkpt lat="43.23986" lon="6.38556">
        <ele>251.6</ele>
        <time>2015-04-19T09:26:50Z</time>
      </trkpt>
      <trkpt lat="43.23986" lon="6.38556">
        <ele>251.3</ele>
        <time>2015-04-19T09:26:51Z</time>
      </trkpt>
      <trkpt lat="43.23986" lon="6.38579">
        <ele>249.7</ele>
        <time>2015-04-19T09:27:07Z</time>
      </trkpt>
      <trkpt lat="43.23986" lon="6.3859">
        <ele>248.5</ele>
        <time>2015-04-19T09:27:15Z</time>
      </trkpt>
      <trkpt lat="43.23989" lon="6.386">
        <ele>247.8</ele>
        <time>2015-04-19T09:27:21Z</time>
      </trkpt>
      <trkpt lat="43.23992" lon="6.38611">
        <ele>247.3</ele>
        <time>2015-04-19T09:27:30Z</time>
      </trkpt>
      <trkpt lat="43.23996" lon="6.3862">
        <ele>247.2</ele>
        <time>2015-04-19T09:27:37Z</time>
      </trkpt>
      <trkpt lat="43.23999" lon="6.38631">
        <ele>245.7</ele>
        <time>2015-04-19T09:27:46Z</time>
      </trkpt>
      <trkpt lat="43.23998" lon="6.38642">
        <ele>245.2</ele>
        <time>2015-04-19T09:27:56Z</time>
      </trkpt>
      <trkpt lat="43.23997" lon="6.38644">
        <ele>245.1</ele>
        <time>2015-04-19T09:27:57Z</time>
      </trkpt>
      <trkpt lat="43.23985" lon="6.38659">
        <ele>243.7</ele>
        <time>2015-04-19T09:28:15Z</time>
      </trkpt>
      <trkpt lat="43.23978" lon="6.38665">
        <ele>241.9</ele>
        <time>2015-04-19T09:28:24Z</time>
      </trkpt>
      <trkpt lat="43.23972" lon="6.38674">
        <ele>240.9</ele>
        <time>2015-04-19T09:28:35Z</time>
      </trkpt>
      <trkpt lat="43.23967" lon="6.38684">
        <ele>239.1</ele>
        <time>2015-04-19T09:29:19Z</time>
      </trkpt>
      <trkpt lat="43.23964" lon="6.38683">
        <ele>239.1</ele>
        <time>2015-04-19T09:29:20Z</time>
      </trkpt>
      <trkpt lat="43.23957" lon="6.38697">
        <ele>237.9</ele>
        <time>2015-04-19T09:29:46Z</time>
      </trkpt>
      <trkpt lat="43.23966" lon="6.38697">
        <ele>237.9</ele>
        <time>2015-04-19T09:29:58Z</time>
      </trkpt>
      <trkpt lat="43.23974" lon="6.38698">
        <ele>237.2</ele>
        <time>2015-04-19T09:30:09Z</time>
      </trkpt>
      <trkpt lat="43.23982" lon="6.38699">
        <ele>235.7</ele>
        <time>2015-04-19T09:30:15Z</time>
      </trkpt>
      <trkpt lat="43.2399" lon="6.38696">
        <ele>235.6</ele>
        <time>2015-04-19T09:30:22Z</time>
      </trkpt>
      <trkpt lat="43.23991" lon="6.38698">
        <ele>235.5</ele>
        <time>2015-04-19T09:30:23Z</time>
      </trkpt>
      <trkpt lat="43.24005" lon="6.38698">
        <ele>234.2</ele>
        <time>2015-04-19T09:30:33Z</time>
      </trkpt>
      <trkpt lat="43.24014" lon="6.38699">
        <ele>233.7</ele>
        <time>2015-04-19T09:30:41Z</time>
      </trkpt>
      <trkpt lat="43.24022" lon="6.38702">
        <ele>233.6</ele>
        <time>2015-04-19T09:30:49Z</time>
      </trkpt>
      <trkpt lat="43.2403" lon="6.38701">
        <ele>233.3</ele>
        <time>2015-04-19T09:30:56Z</time>
      </trkpt>
      <trkpt lat="43.24038" lon="6.38704">
        <ele>233.2</ele>
        <time>2015-04-19T09:31:06Z</time>
      </trkpt>
      <trkpt lat="43.24046" lon="6.38709">
        <ele>234.1</ele>
        <time>2015-04-19T09:31:30Z</time>
      </trkpt>
      <trkpt lat="43.24047" lon="6.38709">
        <ele>234.3</ele>
        <time>2015-04-19T09:31:31Z</time>
      </trkpt>
      <trkpt lat="43.24061" lon="6.3872">
        <ele>236.5</ele>
        <time>2015-04-19T09:31:52Z</time>
      </trkpt>
      <trkpt lat="43.24065" lon="6.38731">
        <ele>239.2</ele>
        <time>2015-04-19T09:32:11Z</time>
      </trkpt>
      <trkpt lat="43.2407" lon="6.3874">
        <ele>240.4</ele>
        <time>2015-04-19T09:32:22Z</time>
      </trkpt>
      <trkpt lat="43.24075" lon="6.38749">
        <ele>243</ele>
        <time>2015-04-19T09:32:35Z</time>
      </trkpt>
      <trkpt lat="43.24076" lon="6.3875">
        <ele>243.5</ele>
        <time>2015-04-19T09:32:36Z</time>
      </trkpt>
      <trkpt lat="43.24084" lon="6.38768">
        <ele>245.6</ele>
        <time>2015-04-19T09:32:56Z</time>
      </trkpt>
      <trkpt lat="43.24088" lon="6.38779">
        <ele>247</ele>
        <time>2015-04-19T09:33:04Z</time>
      </trkpt>
      <trkpt lat="43.24091" lon="6.38789">
        <ele>247.7</ele>
        <time>2015-04-19T09:33:17Z</time>
      </trkpt>
      <trkpt lat="43.24095" lon="6.38799">
        <ele>250.2</ele>
        <time>2015-04-19T09:33:36Z</time>
      </trkpt>
      <trkpt lat="43.24096" lon="6.38801">
        <ele>250.1</ele>
        <time>2015-04-19T09:33:37Z</time>
      </trkpt>
      <trkpt lat="43.24097" lon="6.38822">
        <ele>253.7</ele>
        <time>2015-04-19T09:34:01Z</time>
      </trkpt>
      <trkpt lat="43.24098" lon="6.38834">
        <ele>256.1</ele>
        <time>2015-04-19T09:34:18Z</time>
      </trkpt>
      <trkpt lat="43.241" lon="6.38845">
        <ele>256.7</ele>
        <time>2015-04-19T09:34:29Z</time>
      </trkpt>
      <trkpt lat="43.24103" lon="6.38856">
        <ele>257.4</ele>
        <time>2015-04-19T09:34:41Z</time>
      </trkpt>
      <trkpt lat="43.24102" lon="6.38857">
        <ele>257.5</ele>
        <time>2015-04-19T09:34:42Z</time>
      </trkpt>
      <trkpt lat="43.24102" lon="6.38879">
        <ele>257.6</ele>
        <time>2015-04-19T09:34:59Z</time>
      </trkpt>
      <trkpt lat="43.24103" lon="6.38891">
        <ele>258.5</ele>
        <time>2015-04-19T09:35:06Z</time>
      </trkpt>
      <trkpt lat="43.24099" lon="6.38902">
        <ele>258.3</ele>
        <time>2015-04-19T09:35:24Z</time>
      </trkpt>
      <trkpt lat="43.24095" lon="6.38911">
        <ele>258.2</ele>
        <time>2015-04-19T09:35:34Z</time>
      </trkpt>
      <trkpt lat="43.24088" lon="6.38917">
        <ele>259.7</ele>
        <time>2015-04-19T09:35:48Z</time>
      </trkpt>
      <trkpt lat="43.24086" lon="6.38918">
        <ele>259.9</ele>
        <time>2015-04-19T09:35:49Z</time>
      </trkpt>
      <trkpt lat="43.24073" lon="6.38926">
        <ele>259.9</ele>
        <time>2015-04-19T09:36:01Z</time>
      </trkpt>
      <trkpt lat="43.24066" lon="6.38932">
        <ele>262.8</ele>
        <time>2015-04-19T09:36:21Z</time>
      </trkpt>
      <trkpt lat="43.24058" lon="6.38935">
        <ele>263.8</ele>
        <time>2015-04-19T09:36:33Z</time>
      </trkpt>
      <trkpt lat="43.2405" lon="6.38936">
        <ele>265.4</ele>
        <time>2015-04-19T09:36:42Z</time>
      </trkpt>
      <trkpt lat="43.24041" lon="6.3894">
        <ele>265.8</ele>
        <time>2015-04-19T09:37:04Z</time>
      </trkpt>
      <trkpt lat="43.24041" lon="6.38941">
        <ele>266.1</ele>
        <time>2015-04-19T09:37:05Z</time>
      </trkpt>
      <trkpt lat="43.24027" lon="6.38951">
        <ele>267.4</ele>
        <time>2015-04-19T09:38:10Z</time>
      </trkpt>
      <trkpt lat="43.24027" lon="6.38952">
        <ele>267</ele>
        <time>2015-04-19T09:38:11Z</time>
      </trkpt>
      <trkpt lat="43.2402" lon="6.38971">
        <ele>269</ele>
        <time>2015-04-19T09:38:32Z</time>
      </trkpt>
      <trkpt lat="43.24023" lon="6.38982">
        <ele>269.6</ele>
        <time>2015-04-19T09:38:41Z</time>
      </trkpt>
      <trkpt lat="43.24018" lon="6.38992">
        <ele>270.3</ele>
        <time>2015-04-19T09:38:53Z</time>
      </trkpt>
      <trkpt lat="43.24013" lon="6.39002">
        <ele>271</ele>
        <time>2015-04-19T09:39:06Z</time>
      </trkpt>
      <trkpt lat="43.24008" lon="6.39009">
        <ele>272.6</ele>
        <time>2015-04-19T09:39:20Z</time>
      </trkpt>
      <trkpt lat="43.24007" lon="6.39011">
        <ele>272.8</ele>
        <time>2015-04-19T09:39:21Z</time>
      </trkpt>
      <trkpt lat="43.23997" lon="6.39027">
        <ele>274.1</ele>
        <time>2015-04-19T09:39:39Z</time>
      </trkpt>
      <trkpt lat="43.23991" lon="6.39036">
        <ele>276.3</ele>
        <time>2015-04-19T09:39:49Z</time>
      </trkpt>
      <trkpt lat="43.23984" lon="6.39042">
        <ele>277.5</ele>
        <time>2015-04-19T09:39:56Z</time>
      </trkpt>
      <trkpt lat="43.23977" lon="6.3905">
        <ele>277.7</ele>
        <time>2015-04-19T09:40:06Z</time>
      </trkpt>
      <trkpt lat="43.2397" lon="6.39056">
        <ele>280</ele>
        <time>2015-04-19T09:40:15Z</time>
      </trkpt>
      <trkpt lat="43.23963" lon="6.39061">
        <ele>280.7</ele>
        <time>2015-04-19T09:40:23Z</time>
      </trkpt>
      <trkpt lat="43.23962" lon="6.39061">
        <ele>281</ele>
        <time>2015-04-19T09:40:24Z</time>
      </trkpt>
      <trkpt lat="43.23948" lon="6.39074">
        <ele>282.5</ele>
        <time>2015-04-19T09:40:50Z</time>
      </trkpt>
      <trkpt lat="43.23942" lon="6.39082">
        <ele>283.4</ele>
        <time>2015-04-19T09:41:01Z</time>
      </trkpt>
      <trkpt lat="43.23936" lon="6.3909">
        <ele>282.6</ele>
        <time>2015-04-19T09:41:11Z</time>
      </trkpt>
      <trkpt lat="43.23937" lon="6.39102">
        <ele>284.5</ele>
        <time>2015-04-19T09:41:28Z</time>
      </trkpt>
      <trkpt lat="43.23937" lon="6.39103">
        <ele>284.7</ele>
        <time>2015-04-19T09:41:29Z</time>
      </trkpt>
      <trkpt lat="43.23939" lon="6.39126">
        <ele>285.1</ele>
        <time>2015-04-19T09:41:48Z</time>
      </trkpt>
      <trkpt lat="43.23937" lon="6.39137">
        <ele>284.5</ele>
        <time>2015-04-19T09:41:58Z</time>
      </trkpt>
      <trkpt lat="43.23938" lon="6.39149">
        <ele>283.7</ele>
        <time>2015-04-19T09:42:08Z</time>
      </trkpt>
      <trkpt lat="43.23931" lon="6.39157">
        <ele>284.6</ele>
        <time>2015-04-19T09:42:17Z</time>
      </trkpt>
      <trkpt lat="43.2393" lon="6.39169">
        <ele>285.6</ele>
        <time>2015-04-19T09:42:33Z</time>
      </trkpt>
      <trkpt lat="43.2393" lon="6.3917">
        <ele>285.6</ele>
        <time>2015-04-19T09:42:34Z</time>
      </trkpt>
      <trkpt lat="43.23929" lon="6.39192">
        <ele>286.1</ele>
        <time>2015-04-19T09:43:06Z</time>
      </trkpt>
      <trkpt lat="43.23929" lon="6.39202">
        <ele>288.3</ele>
        <time>2015-04-19T09:43:16Z</time>
      </trkpt>
      <trkpt lat="43.23927" lon="6.39214">
        <ele>288.4</ele>
        <time>2015-04-19T09:43:25Z</time>
      </trkpt>
      <trkpt lat="43.23927" lon="6.39226">
        <ele>289.9</ele>
        <time>2015-04-19T09:43:34Z</time>
      </trkpt>
      <trkpt lat="43.23928" lon="6.39227">
        <ele>289.8</ele>
        <time>2015-04-19T09:43:35Z</time>
      </trkpt>
      <trkpt lat="43.23929" lon="6.39247">
        <ele>290.7</ele>
        <time>2015-04-19T09:43:55Z</time>
      </trkpt>
      <trkpt lat="43.23927" lon="6.39258">
        <ele>291.9</ele>
        <time>2015-04-19T09:44:02Z</time>
      </trkpt>
      <trkpt lat="43.23931" lon="6.39267">
        <ele>291.6</ele>
        <time>2015-04-19T09:44:12Z</time>
      </trkpt>
      <trkpt lat="43.23939" lon="6.39273">
        <ele>293.3</ele>
        <time>2015-04-19T09:44:26Z</time>
      </trkpt>
      <trkpt lat="43.23935" lon="6.39284">
        <ele>298.9</ele>
        <time>2015-04-19T09:45:05Z</time>
      </trkpt>
      <trkpt lat="43.23936" lon="6.39286">
        <ele>299.1</ele>
        <time>2015-04-19T09:45:06Z</time>
      </trkpt>
      <trkpt lat="43.23932" lon="6.393">
        <ele>304.2</ele>
        <time>2015-04-19T09:46:06Z</time>
      </trkpt>
      <trkpt lat="43.23932" lon="6.39302">
        <ele>304.4</ele>
        <time>2015-04-19T09:46:07Z</time>
      </trkpt>
      <trkpt lat="43.23939" lon="6.39322">
        <ele>308.1</ele>
        <time>2015-04-19T09:46:28Z</time>
      </trkpt>
      <trkpt lat="43.23946" lon="6.39329">
        <ele>310.1</ele>
        <time>2015-04-19T09:46:40Z</time>
      </trkpt>
      <trkpt lat="43.23953" lon="6.39335">
        <ele>311.3</ele>
        <time>2015-04-19T09:46:47Z</time>
      </trkpt>
      <trkpt lat="43.23952" lon="6.39347">
        <ele>316.6</ele>
        <time>2015-04-19T09:47:23Z</time>
      </trkpt>
      <trkpt lat="43.23952" lon="6.39348">
        <ele>317.1</ele>
        <time>2015-04-19T09:47:24Z</time>
      </trkpt>
      <trkpt lat="43.23957" lon="6.3937">
        <ele>323.8</ele>
        <time>2015-04-19T09:48:29Z</time>
      </trkpt>
      <trkpt lat="43.23957" lon="6.39371">
        <ele>323.8</ele>
        <time>2015-04-19T09:48:30Z</time>
      </trkpt>
      <trkpt lat="43.23962" lon="6.39393">
        <ele>327.5</ele>
        <time>2015-04-19T09:49:08Z</time>
      </trkpt>
      <trkpt lat="43.23965" lon="6.39404">
        <ele>331.1</ele>
        <time>2015-04-19T09:49:30Z</time>
      </trkpt>
      <trkpt lat="43.23965" lon="6.39405">
        <ele>331</ele>
        <time>2015-04-19T09:49:31Z</time>
      </trkpt>
      <trkpt lat="43.23976" lon="6.39422">
        <ele>333.8</ele>
        <time>2015-04-19T09:49:57Z</time>
      </trkpt>
      <trkpt lat="43.23976" lon="6.39434">
        <ele>337</ele>
        <time>2015-04-19T09:50:16Z</time>
      </trkpt>
      <trkpt lat="43.23981" lon="6.39443">
        <ele>338.2</ele>
        <time>2015-04-19T09:50:34Z</time>
      </trkpt>
      <trkpt lat="43.23982" lon="6.39444">
        <ele>338.2</ele>
        <time>2015-04-19T09:50:35Z</time>
      </trkpt>
      <trkpt lat="43.23995" lon="6.39456">
        <ele>340.8</ele>
        <time>2015-04-19T09:50:59Z</time>
      </trkpt>
      <trkpt lat="43.24001" lon="6.39465">
        <ele>344.2</ele>
        <time>2015-04-19T09:51:17Z</time>
      </trkpt>
      <trkpt lat="43.24006" lon="6.39474">
        <ele>346.3</ele>
        <time>2015-04-19T09:51:37Z</time>
      </trkpt>
      <trkpt lat="43.24007" lon="6.39474">
        <ele>346.4</ele>
        <time>2015-04-19T09:51:38Z</time>
      </trkpt>
      <trkpt lat="43.24001" lon="6.39495">
        <ele>350.7</ele>
        <time>2015-04-19T09:52:02Z</time>
      </trkpt>
      <trkpt lat="43.23995" lon="6.39504">
        <ele>352.4</ele>
        <time>2015-04-19T09:52:12Z</time>
      </trkpt>
      <trkpt lat="43.23989" lon="6.39513">
        <ele>352.9</ele>
        <time>2015-04-19T09:52:23Z</time>
      </trkpt>
      <trkpt lat="43.23985" lon="6.39524">
        <ele>354</ele>
        <time>2015-04-19T09:52:36Z</time>
      </trkpt>
      <trkpt lat="43.2399" lon="6.39535">
        <ele>356.1</ele>
        <time>2015-04-19T09:52:45Z</time>
      </trkpt>
      <trkpt lat="43.2399" lon="6.39536">
        <ele>356</ele>
        <time>2015-04-19T09:52:46Z</time>
      </trkpt>
      <trkpt lat="43.24" lon="6.39554">
        <ele>359</ele>
        <time>2015-04-19T09:53:07Z</time>
      </trkpt>
      <trkpt lat="43.24007" lon="6.39561">
        <ele>359.9</ele>
        <time>2015-04-19T09:53:15Z</time>
      </trkpt>
      <trkpt lat="43.24012" lon="6.3957">
        <ele>360.8</ele>
        <time>2015-04-19T09:53:26Z</time>
      </trkpt>
      <trkpt lat="43.24019" lon="6.39576">
        <ele>363.1</ele>
        <time>2015-04-19T09:53:41Z</time>
      </trkpt>
      <trkpt lat="43.24019" lon="6.39588">
        <ele>364.8</ele>
        <time>2015-04-19T09:53:56Z</time>
      </trkpt>
      <trkpt lat="43.24019" lon="6.39588">
        <ele>365.2</ele>
        <time>2015-04-19T09:53:57Z</time>
      </trkpt>
      <trkpt lat="43.24021" lon="6.39611">
        <ele>369</ele>
        <time>2015-04-19T09:54:18Z</time>
      </trkpt>
      <trkpt lat="43.24017" lon="6.39622">
        <ele>371.7</ele>
        <time>2015-04-19T09:54:42Z</time>
      </trkpt>
      <trkpt lat="43.2401" lon="6.39628">
        <ele>373.2</ele>
        <time>2015-04-19T09:54:51Z</time>
      </trkpt>
      <trkpt lat="43.24006" lon="6.39637">
        <ele>374.6</ele>
        <time>2015-04-19T09:55:05Z</time>
      </trkpt>
      <trkpt lat="43.24005" lon="6.39639">
        <ele>374.7</ele>
        <time>2015-04-19T09:55:06Z</time>
      </trkpt>
      <trkpt lat="43.2399" lon="6.39637">
        <ele>376</ele>
        <time>2015-04-19T09:55:40Z</time>
      </trkpt>
      <trkpt lat="43.23983" lon="6.39642">
        <ele>376.6</ele>
        <time>2015-04-19T09:55:47Z</time>
      </trkpt>
      <trkpt lat="43.23975" lon="6.39642">
        <ele>377.1</ele>
        <time>2015-04-19T09:55:54Z</time>
      </trkpt>
      <trkpt lat="43.23967" lon="6.39647">
        <ele>376.8</ele>
        <time>2015-04-19T09:56:02Z</time>
      </trkpt>
      <trkpt lat="43.23959" lon="6.39649">
        <ele>377.6</ele>
        <time>2015-04-19T09:56:13Z</time>
      </trkpt>
      <trkpt lat="43.23958" lon="6.39649">
        <ele>377.6</ele>
        <time>2015-04-19T09:56:14Z</time>
      </trkpt>
      <trkpt lat="43.23943" lon="6.39659">
        <ele>378.9</ele>
        <time>2015-04-19T09:56:36Z</time>
      </trkpt>
      <trkpt lat="43.23935" lon="6.39664">
        <ele>379.6</ele>
        <time>2015-04-19T09:56:47Z</time>
      </trkpt>
      <trkpt lat="43.23928" lon="6.39669">
        <ele>379.7</ele>
        <time>2015-04-19T09:56:53Z</time>
      </trkpt>
      <trkpt lat="43.2392" lon="6.39673">
        <ele>378.8</ele>
        <time>2015-04-19T09:57:02Z</time>
      </trkpt>
      <trkpt lat="43.23915" lon="6.39682">
        <ele>378.3</ele>
        <time>2015-04-19T09:57:09Z</time>
      </trkpt>
      <trkpt lat="43.23911" lon="6.39692">
        <ele>377.7</ele>
        <time>2015-04-19T09:57:15Z</time>
      </trkpt>
      <trkpt lat="43.2391" lon="6.39694">
        <ele>377.5</ele>
        <time>2015-04-19T09:57:16Z</time>
      </trkpt>
      <trkpt lat="43.23909" lon="6.39714">
        <ele>374.8</ele>
        <time>2015-04-19T09:57:31Z</time>
      </trkpt>
      <trkpt lat="43.23904" lon="6.39723">
        <ele>374.5</ele>
        <time>2015-04-19T09:57:44Z</time>
      </trkpt>
      <trkpt lat="43.23896" lon="6.39729">
        <ele>374.8</ele>
        <time>2015-04-19T09:57:52Z</time>
      </trkpt>
      <trkpt lat="43.2389" lon="6.39737">
        <ele>375.2</ele>
        <time>2015-04-19T09:58:04Z</time>
      </trkpt>
      <trkpt lat="43.23888" lon="6.39749">
        <ele>374.4</ele>
        <time>2015-04-19T09:58:11Z</time>
      </trkpt>
      <trkpt lat="43.23881" lon="6.39756">
        <ele>373.2</ele>
        <time>2015-04-19T09:58:32Z</time>
      </trkpt>
      <trkpt lat="43.23881" lon="6.39756">
        <ele>373</ele>
        <time>2015-04-19T09:58:33Z</time>
      </trkpt>
      <trkpt lat="43.23869" lon="6.39772">
        <ele>373.4</ele>
        <time>2015-04-19T09:59:04Z</time>
      </trkpt>
      <trkpt lat="43.23863" lon="6.3978">
        <ele>373.2</ele>
        <time>2015-04-19T09:59:14Z</time>
      </trkpt>
      <trkpt lat="43.23854" lon="6.39784">
        <ele>373</ele>
        <time>2015-04-19T09:59:23Z</time>
      </trkpt>
      <trkpt lat="43.23849" lon="6.39791">
        <ele>372.1</ele>
        <time>2015-04-19T09:59:30Z</time>
      </trkpt>
      <trkpt lat="43.23843" lon="6.398">
        <ele>371.4</ele>
        <time>2015-04-19T09:59:37Z</time>
      </trkpt>
      <trkpt lat="43.23842" lon="6.39801">
        <ele>371.6</ele>
        <time>2015-04-19T09:59:38Z</time>
      </trkpt>
      <trkpt lat="43.23829" lon="6.3981">
        <ele>370</ele>
        <time>2015-04-19T10:01:01Z</time>
      </trkpt>
      <trkpt lat="43.23828" lon="6.39812">
        <ele>370</ele>
        <time>2015-04-19T10:01:02Z</time>
      </trkpt>
      <trkpt lat="43.23813" lon="6.39806">
        <ele>374</ele>
        <time>2015-04-19T10:01:28Z</time>
      </trkpt>
      <trkpt lat="43.23804" lon="6.39806">
        <ele>375.8</ele>
        <time>2015-04-19T10:01:36Z</time>
      </trkpt>
      <trkpt lat="43.23796" lon="6.39805">
        <ele>376.2</ele>
        <time>2015-04-19T10:01:43Z</time>
      </trkpt>
      <trkpt lat="43.23787" lon="6.39804">
        <ele>376.1</ele>
        <time>2015-04-19T10:01:53Z</time>
      </trkpt>
      <trkpt lat="43.23779" lon="6.39806">
        <ele>376.5</ele>
        <time>2015-04-19T10:02:03Z</time>
      </trkpt>
      <trkpt lat="43.23779" lon="6.39806">
        <ele>376.6</ele>
        <time>2015-04-19T10:02:04Z</time>
      </trkpt>
      <trkpt lat="43.23762" lon="6.39814">
        <ele>375.2</ele>
        <time>2015-04-19T10:02:27Z</time>
      </trkpt>
      <trkpt lat="43.23754" lon="6.39817">
        <ele>373.7</ele>
        <time>2015-04-19T10:02:37Z</time>
      </trkpt>
      <trkpt lat="43.23747" lon="6.39824">
        <ele>373.9</ele>
        <time>2015-04-19T10:02:50Z</time>
      </trkpt>
      <trkpt lat="43.23739" lon="6.39829">
        <ele>373.9</ele>
        <time>2015-04-19T10:03:04Z</time>
      </trkpt>
      <trkpt lat="43.23739" lon="6.39829">
        <ele>373.8</ele>
        <time>2015-04-19T10:03:05Z</time>
      </trkpt>
      <trkpt lat="43.23723" lon="6.39832">
        <ele>374.7</ele>
        <time>2015-04-19T10:03:24Z</time>
      </trkpt>
      <trkpt lat="43.23716" lon="6.39838">
        <ele>375.2</ele>
        <time>2015-04-19T10:03:36Z</time>
      </trkpt>
      <trkpt lat="43.2371" lon="6.39846">
        <ele>375.7</ele>
        <time>2015-04-19T10:03:47Z</time>
      </trkpt>
      <trkpt lat="43.23702" lon="6.39847">
        <ele>373.7</ele>
        <time>2015-04-19T10:03:56Z</time>
      </trkpt>
      <trkpt lat="43.23693" lon="6.39846">
        <ele>375.4</ele>
        <time>2015-04-19T10:04:06Z</time>
      </trkpt>
      <trkpt lat="43.23692" lon="6.39846">
        <ele>375.6</ele>
        <time>2015-04-19T10:04:07Z</time>
      </trkpt>
      <trkpt lat="43.23677" lon="6.39849">
        <ele>377.1</ele>
        <time>2015-04-19T10:04:24Z</time>
      </trkpt>
      <trkpt lat="43.23669" lon="6.39851">
        <ele>378.5</ele>
        <time>2015-04-19T10:04:36Z</time>
      </trkpt>
      <trkpt lat="43.23661" lon="6.39852">
        <ele>379</ele>
        <time>2015-04-19T10:04:42Z</time>
      </trkpt>
      <trkpt lat="43.23654" lon="6.39858">
        <ele>379.9</ele>
        <time>2015-04-19T10:04:55Z</time>
      </trkpt>
      <trkpt lat="43.2365" lon="6.39868">
        <ele>378.5</ele>
        <time>2015-04-19T10:05:01Z</time>
      </trkpt>
      <trkpt lat="43.23649" lon="6.3988">
        <ele>378.9</ele>
        <time>2015-04-19T10:05:20Z</time>
      </trkpt>
      <trkpt lat="43.23649" lon="6.39882">
        <ele>379.1</ele>
        <time>2015-04-19T10:05:21Z</time>
      </trkpt>
      <trkpt lat="43.23633" lon="6.39887">
        <ele>384.6</ele>
        <time>2015-04-19T10:06:00Z</time>
      </trkpt>
      <trkpt lat="43.23628" lon="6.39896">
        <ele>385.3</ele>
        <time>2015-04-19T10:06:09Z</time>
      </trkpt>
      <trkpt lat="43.23627" lon="6.39909">
        <ele>386.3</ele>
        <time>2015-04-19T10:06:17Z</time>
      </trkpt>
      <trkpt lat="43.23619" lon="6.39912">
        <ele>386.5</ele>
        <time>2015-04-19T10:06:26Z</time>
      </trkpt>
      <trkpt lat="43.23618" lon="6.39913">
        <ele>387.1</ele>
        <time>2015-04-19T10:06:27Z</time>
      </trkpt>
      <trkpt lat="43.23603" lon="6.39919">
        <ele>390.9</ele>
        <time>2015-04-19T10:06:59Z</time>
      </trkpt>
      <trkpt lat="43.23595" lon="6.39916">
        <ele>390.9</ele>
        <time>2015-04-19T10:07:35Z</time>
      </trkpt>
      <trkpt lat="43.23594" lon="6.39916">
        <ele>391</ele>
        <time>2015-04-19T10:07:36Z</time>
      </trkpt>
      <trkpt lat="43.23577" lon="6.39917">
        <ele>387.7</ele>
        <time>2015-04-19T10:07:57Z</time>
      </trkpt>
      <trkpt lat="43.23568" lon="6.39916">
        <ele>385</ele>
        <time>2015-04-19T10:08:05Z</time>
      </trkpt>
      <trkpt lat="43.23561" lon="6.39911">
        <ele>384</ele>
        <time>2015-04-19T10:08:14Z</time>
      </trkpt>
      <trkpt lat="43.23554" lon="6.39905">
        <ele>383</ele>
        <time>2015-04-19T10:08:22Z</time>
      </trkpt>
      <trkpt lat="43.23546" lon="6.399">
        <ele>381.3</ele>
        <time>2015-04-19T10:08:30Z</time>
      </trkpt>
      <trkpt lat="43.2354" lon="6.39892">
        <ele>379.9</ele>
        <time>2015-04-19T10:08:40Z</time>
      </trkpt>
      <trkpt lat="43.23538" lon="6.39891">
        <ele>379.8</ele>
        <time>2015-04-19T10:08:41Z</time>
      </trkpt>
      <trkpt lat="43.23525" lon="6.39881">
        <ele>380.9</ele>
        <time>2015-04-19T10:08:59Z</time>
      </trkpt>
      <trkpt lat="43.23517" lon="6.39885">
        <ele>383.6</ele>
        <time>2015-04-19T10:09:20Z</time>
      </trkpt>
      <trkpt lat="43.23511" lon="6.39891">
        <ele>386</ele>
        <time>2015-04-19T10:09:29Z</time>
      </trkpt>
      <trkpt lat="43.23503" lon="6.39895">
        <ele>386.7</ele>
        <time>2015-04-19T10:09:36Z</time>
      </trkpt>
      <trkpt lat="43.23497" lon="6.39903">
        <ele>387.5</ele>
        <time>2015-04-19T10:09:47Z</time>
      </trkpt>
      <trkpt lat="43.23496" lon="6.39904">
        <ele>387.7</ele>
        <time>2015-04-19T10:09:48Z</time>
      </trkpt>
      <trkpt lat="43.23489" lon="6.39923">
        <ele>389.7</ele>
        <time>2015-04-19T10:10:33Z</time>
      </trkpt>
      <trkpt lat="43.23491" lon="6.39935">
        <ele>390.8</ele>
        <time>2015-04-19T10:10:43Z</time>
      </trkpt>
      <trkpt lat="43.23494" lon="6.39946">
        <ele>392.2</ele>
        <time>2015-04-19T10:11:14Z</time>
      </trkpt>
      <trkpt lat="43.23494" lon="6.39947">
        <ele>392.6</ele>
        <time>2015-04-19T10:11:15Z</time>
      </trkpt>
      <trkpt lat="43.23496" lon="6.39968">
        <ele>397.1</ele>
        <time>2015-04-19T10:11:56Z</time>
      </trkpt>
      <trkpt lat="43.23501" lon="6.39976">
        <ele>399.3</ele>
        <time>2015-04-19T10:13:07Z</time>
      </trkpt>
      <trkpt lat="43.23502" lon="6.39977">
        <ele>399</ele>
        <time>2015-04-19T10:13:08Z</time>
      </trkpt>
      <trkpt lat="43.23498" lon="6.39998">
        <ele>404.3</ele>
        <time>2015-04-19T10:14:13Z</time>
      </trkpt>
      <trkpt lat="43.23499" lon="6.39998">
        <ele>404.4</ele>
        <time>2015-04-19T10:14:14Z</time>
      </trkpt>
      <trkpt lat="43.23501" lon="6.40021">
        <ele>410.9</ele>
        <time>2015-04-19T10:15:00Z</time>
      </trkpt>
      <trkpt lat="43.23504" lon="6.40032">
        <ele>410.6</ele>
        <time>2015-04-19T10:15:16Z</time>
      </trkpt>
      <trkpt lat="43.23506" lon="6.40033">
        <ele>410.6</ele>
        <time>2015-04-19T10:15:17Z</time>
      </trkpt>
      <trkpt lat="43.23522" lon="6.40044">
        <ele>409.6</ele>
        <time>2015-04-19T10:16:46Z</time>
      </trkpt>
      <trkpt lat="43.23522" lon="6.40044">
        <ele>409.5</ele>
        <time>2015-04-19T10:16:47Z</time>
      </trkpt>
      <trkpt lat="43.23523" lon="6.40023">
        <ele>414.3</ele>
        <time>2015-04-19T10:57:22Z</time>
      </trkpt>
      <trkpt lat="43.23514" lon="6.40025">
        <ele>415.3</ele>
        <time>2015-04-19T10:57:48Z</time>
      </trkpt>
      <trkpt lat="43.23511" lon="6.40016">
        <ele>415.1</ele>
        <time>2015-04-19T10:57:53Z</time>
      </trkpt>
      <trkpt lat="43.23507" lon="6.40006">
        <ele>415</ele>
        <time>2015-04-19T10:57:59Z</time>
      </trkpt>
      <trkpt lat="43.23499" lon="6.40012">
        <ele>418.4</ele>
        <time>2015-04-19T10:58:26Z</time>
      </trkpt>
      <trkpt lat="43.23499" lon="6.40012">
        <ele>418.4</ele>
        <time>2015-04-19T10:58:27Z</time>
      </trkpt>
      <trkpt lat="43.23491" lon="6.40031">
        <ele>424.1</ele>
        <time>2015-04-19T10:58:55Z</time>
      </trkpt>
      <trkpt lat="43.23489" lon="6.40043">
        <ele>424.7</ele>
        <time>2015-04-19T10:59:08Z</time>
      </trkpt>
      <trkpt lat="43.23487" lon="6.40031">
        <ele>424.9</ele>
        <time>2015-04-19T10:59:42Z</time>
      </trkpt>
      <trkpt lat="43.23487" lon="6.4003">
        <ele>424.8</ele>
        <time>2015-04-19T10:59:43Z</time>
      </trkpt>
      <trkpt lat="43.2348" lon="6.4001">
        <ele>424.9</ele>
        <time>2015-04-19T10:59:58Z</time>
      </trkpt>
      <trkpt lat="43.23474" lon="6.40003">
        <ele>424.8</ele>
        <time>2015-04-19T11:00:05Z</time>
      </trkpt>
      <trkpt lat="43.23465" lon="6.39994">
        <ele>425</ele>
        <time>2015-04-19T11:00:12Z</time>
      </trkpt>
      <trkpt lat="43.2346" lon="6.39985">
        <ele>426.8</ele>
        <time>2015-04-19T11:00:24Z</time>
      </trkpt>
      <trkpt lat="43.23457" lon="6.39973">
        <ele>427.8</ele>
        <time>2015-04-19T11:00:35Z</time>
      </trkpt>
      <trkpt lat="43.23452" lon="6.39964">
        <ele>429.3</ele>
        <time>2015-04-19T11:00:49Z</time>
      </trkpt>
      <trkpt lat="43.23451" lon="6.39964">
        <ele>429.3</ele>
        <time>2015-04-19T11:00:50Z</time>
      </trkpt>
      <trkpt lat="43.23439" lon="6.39952">
        <ele>430.9</ele>
        <time>2015-04-19T11:01:16Z</time>
      </trkpt>
      <trkpt lat="43.23432" lon="6.39948">
        <ele>432.7</ele>
        <time>2015-04-19T11:01:28Z</time>
      </trkpt>
      <trkpt lat="43.23425" lon="6.39942">
        <ele>433</ele>
        <time>2015-04-19T11:01:34Z</time>
      </trkpt>
      <trkpt lat="43.2343" lon="6.39932">
        <ele>432.5</ele>
        <time>2015-04-19T11:02:12Z</time>
      </trkpt>
      <trkpt lat="43.2343" lon="6.39932">
        <ele>432.3</ele>
        <time>2015-04-19T11:02:13Z</time>
      </trkpt>
      <trkpt lat="43.23437" lon="6.39913">
        <ele>432.9</ele>
        <time>2015-04-19T11:02:32Z</time>
      </trkpt>
      <trkpt lat="43.23443" lon="6.39904">
        <ele>432.6</ele>
        <time>2015-04-19T11:02:37Z</time>
      </trkpt>
      <trkpt lat="43.23439" lon="6.39894">
        <ele>430.8</ele>
        <time>2015-04-19T11:02:50Z</time>
      </trkpt>
      <trkpt lat="43.23442" lon="6.39883">
        <ele>431.2</ele>
        <time>2015-04-19T11:03:11Z</time>
      </trkpt>
      <trkpt lat="43.23449" lon="6.39875">
        <ele>431.9</ele>
        <time>2015-04-19T11:03:18Z</time>
      </trkpt>
      <trkpt lat="43.2345" lon="6.39873">
        <ele>431.7</ele>
        <time>2015-04-19T11:03:19Z</time>
      </trkpt>
      <trkpt lat="43.23455" lon="6.39856">
        <ele>434.4</ele>
        <time>2015-04-19T11:03:29Z</time>
      </trkpt>
      <trkpt lat="43.2345" lon="6.39847">
        <ele>435</ele>
        <time>2015-04-19T11:03:37Z</time>
      </trkpt>
      <trkpt lat="43.23451" lon="6.39836">
        <ele>434.5</ele>
        <time>2015-04-19T11:03:43Z</time>
      </trkpt>
      <trkpt lat="43.23452" lon="6.39825">
        <ele>434.8</ele>
        <time>2015-04-19T11:03:51Z</time>
      </trkpt>
      <trkpt lat="43.23448" lon="6.39814">
        <ele>436.6</ele>
        <time>2015-04-19T11:03:59Z</time>
      </trkpt>
      <trkpt lat="43.23445" lon="6.39803">
        <ele>438</ele>
        <time>2015-04-19T11:04:08Z</time>
      </trkpt>
      <trkpt lat="43.23444" lon="6.39791">
        <ele>439.1</ele>
        <time>2015-04-19T11:04:16Z</time>
      </trkpt>
      <trkpt lat="43.23447" lon="6.39778">
        <ele>439.7</ele>
        <time>2015-04-19T11:04:25Z</time>
      </trkpt>
      <trkpt lat="43.23447" lon="6.39776">
        <ele>439.9</ele>
        <time>2015-04-19T11:04:26Z</time>
      </trkpt>
      <trkpt lat="43.23445" lon="6.39755">
        <ele>441.1</ele>
        <time>2015-04-19T11:04:40Z</time>
      </trkpt>
      <trkpt lat="43.2344" lon="6.39746">
        <ele>442.9</ele>
        <time>2015-04-19T11:04:48Z</time>
      </trkpt>
      <trkpt lat="43.23432" lon="6.3974">
        <ele>443</ele>
        <time>2015-04-19T11:04:55Z</time>
      </trkpt>
      <trkpt lat="43.23424" lon="6.39736">
        <ele>443.2</ele>
        <time>2015-04-19T11:05:01Z</time>
      </trkpt>
      <trkpt lat="43.23417" lon="6.39732">
        <ele>443.4</ele>
        <time>2015-04-19T11:05:09Z</time>
      </trkpt>
      <trkpt lat="43.23409" lon="6.39726">
        <ele>445.2</ele>
        <time>2015-04-19T11:05:23Z</time>
      </trkpt>
      <trkpt lat="43.23401" lon="6.39722">
        <ele>447.1</ele>
        <time>2015-04-19T11:05:38Z</time>
      </trkpt>
      <trkpt lat="43.234" lon="6.39722">
        <ele>447.4</ele>
        <time>2015-04-19T11:05:39Z</time>
      </trkpt>
      <trkpt lat="43.23398" lon="6.39701">
        <ele>450.1</ele>
        <time>2015-04-19T11:06:30Z</time>
      </trkpt>
      <trkpt lat="43.23399" lon="6.3969">
        <ele>452.1</ele>
        <time>2015-04-19T11:06:39Z</time>
      </trkpt>
      <trkpt lat="43.23398" lon="6.39688">
        <ele>452.1</ele>
        <time>2015-04-19T11:06:40Z</time>
      </trkpt>
      <trkpt lat="43.23395" lon="6.39667">
        <ele>454.2</ele>
        <time>2015-04-19T11:07:01Z</time>
      </trkpt>
      <trkpt lat="43.23391" lon="6.39656">
        <ele>455.8</ele>
        <time>2015-04-19T11:07:17Z</time>
      </trkpt>
      <trkpt lat="43.23383" lon="6.39646">
        <ele>456</ele>
        <time>2015-04-19T11:07:26Z</time>
      </trkpt>
      <trkpt lat="43.23385" lon="6.39636">
        <ele>457</ele>
        <time>2015-04-19T11:07:39Z</time>
      </trkpt>
      <trkpt lat="43.23389" lon="6.39626">
        <ele>458.2</ele>
        <time>2015-04-19T11:07:46Z</time>
      </trkpt>
      <trkpt lat="43.2339" lon="6.39624">
        <ele>458.5</ele>
        <time>2015-04-19T11:07:47Z</time>
      </trkpt>
      <trkpt lat="43.2338" lon="6.39608">
        <ele>460.6</ele>
        <time>2015-04-19T11:08:03Z</time>
      </trkpt>
      <trkpt lat="43.23372" lon="6.39601">
        <ele>461.9</ele>
        <time>2015-04-19T11:08:12Z</time>
      </trkpt>
      <trkpt lat="43.23374" lon="6.39589">
        <ele>463.1</ele>
        <time>2015-04-19T11:08:27Z</time>
      </trkpt>
      <trkpt lat="43.2337" lon="6.3958">
        <ele>464.3</ele>
        <time>2015-04-19T11:08:37Z</time>
      </trkpt>
      <trkpt lat="43.23364" lon="6.39572">
        <ele>464.6</ele>
        <time>2015-04-19T11:08:43Z</time>
      </trkpt>
      <trkpt lat="43.2336" lon="6.39562">
        <ele>465.6</ele>
        <time>2015-04-19T11:08:55Z</time>
      </trkpt>
      <trkpt lat="43.23359" lon="6.39561">
        <ele>465.6</ele>
        <time>2015-04-19T11:08:56Z</time>
      </trkpt>
      <trkpt lat="43.23349" lon="6.39543">
        <ele>467.1</ele>
        <time>2015-04-19T11:09:15Z</time>
      </trkpt>
      <trkpt lat="43.23342" lon="6.39536">
        <ele>467.4</ele>
        <time>2015-04-19T11:09:24Z</time>
      </trkpt>
      <trkpt lat="43.2334" lon="6.39525">
        <ele>469.4</ele>
        <time>2015-04-19T11:09:38Z</time>
      </trkpt>
      <trkpt lat="43.23333" lon="6.3952">
        <ele>470.1</ele>
        <time>2015-04-19T11:09:44Z</time>
      </trkpt>
      <trkpt lat="43.23326" lon="6.39513">
        <ele>471</ele>
        <time>2015-04-19T11:09:53Z</time>
      </trkpt>
      <trkpt lat="43.23317" lon="6.39506">
        <ele>473.1</ele>
        <time>2015-04-19T11:10:05Z</time>
      </trkpt>
      <trkpt lat="43.23316" lon="6.39505">
        <ele>472.8</ele>
        <time>2015-04-19T11:10:06Z</time>
      </trkpt>
      <trkpt lat="43.23304" lon="6.39492">
        <ele>474.8</ele>
        <time>2015-04-19T11:10:27Z</time>
      </trkpt>
      <trkpt lat="43.23298" lon="6.39484">
        <ele>475.8</ele>
        <time>2015-04-19T11:10:42Z</time>
      </trkpt>
      <trkpt lat="43.2329" lon="6.39479">
        <ele>475.9</ele>
        <time>2015-04-19T11:11:07Z</time>
      </trkpt>
      <trkpt lat="43.23289" lon="6.39479">
        <ele>475.9</ele>
        <time>2015-04-19T11:11:08Z</time>
      </trkpt>
      <trkpt lat="43.23281" lon="6.39459">
        <ele>479.2</ele>
        <time>2015-04-19T11:11:36Z</time>
      </trkpt>
      <trkpt lat="43.23274" lon="6.39454">
        <ele>480.2</ele>
        <time>2015-04-19T11:11:44Z</time>
      </trkpt>
      <trkpt lat="43.23266" lon="6.3945">
        <ele>480.9</ele>
        <time>2015-04-19T11:11:49Z</time>
      </trkpt>
      <trkpt lat="43.23259" lon="6.39442">
        <ele>482.1</ele>
        <time>2015-04-19T11:11:59Z</time>
      </trkpt>
      <trkpt lat="43.23251" lon="6.39441">
        <ele>483.9</ele>
        <time>2015-04-19T11:12:07Z</time>
      </trkpt>
      <trkpt lat="43.23242" lon="6.39441">
        <ele>484.3</ele>
        <time>2015-04-19T11:12:15Z</time>
      </trkpt>
      <trkpt lat="43.23241" lon="6.39441">
        <ele>484.4</ele>
        <time>2015-04-19T11:12:16Z</time>
      </trkpt>
      <trkpt lat="43.23225" lon="6.39436">
        <ele>485.1</ele>
        <time>2015-04-19T11:12:46Z</time>
      </trkpt>
      <trkpt lat="43.23221" lon="6.39425">
        <ele>485.7</ele>
        <time>2015-04-19T11:13:09Z</time>
      </trkpt>
      <trkpt lat="43.23227" lon="6.39418">
        <ele>485.7</ele>
        <time>2015-04-19T11:13:17Z</time>
      </trkpt>
      <trkpt lat="43.23229" lon="6.39417">
        <ele>486.3</ele>
        <time>2015-04-19T11:13:18Z</time>
      </trkpt>
      <trkpt lat="43.2322" lon="6.39398">
        <ele>489</ele>
        <time>2015-04-19T11:13:34Z</time>
      </trkpt>
      <trkpt lat="43.23214" lon="6.39391">
        <ele>490.8</ele>
        <time>2015-04-19T11:13:44Z</time>
      </trkpt>
      <trkpt lat="43.23207" lon="6.39384">
        <ele>490.7</ele>
        <time>2015-04-19T11:13:51Z</time>
      </trkpt>
      <trkpt lat="43.23199" lon="6.39378">
        <ele>492.1</ele>
        <time>2015-04-19T11:13:59Z</time>
      </trkpt>
      <trkpt lat="43.23191" lon="6.39373">
        <ele>493.1</ele>
        <time>2015-04-19T11:14:08Z</time>
      </trkpt>
      <trkpt lat="43.23183" lon="6.39369">
        <ele>493.7</ele>
        <time>2015-04-19T11:14:17Z</time>
      </trkpt>
      <trkpt lat="43.23182" lon="6.39358">
        <ele>492.9</ele>
        <time>2015-04-19T11:14:36Z</time>
      </trkpt>
      <trkpt lat="43.23182" lon="6.39356">
        <ele>493</ele>
        <time>2015-04-19T11:14:37Z</time>
      </trkpt>
      <trkpt lat="43.23181" lon="6.39336">
        <ele>494.6</ele>
        <time>2015-04-19T11:14:53Z</time>
      </trkpt>
      <trkpt lat="43.23174" lon="6.39332">
        <ele>495.5</ele>
        <time>2015-04-19T11:14:58Z</time>
      </trkpt>
      <trkpt lat="43.23166" lon="6.39327">
        <ele>496.7</ele>
        <time>2015-04-19T11:15:09Z</time>
      </trkpt>
      <trkpt lat="43.23158" lon="6.39321">
        <ele>498.5</ele>
        <time>2015-04-19T11:15:21Z</time>
      </trkpt>
      <trkpt lat="43.23152" lon="6.39318">
        <ele>499.8</ele>
        <time>2015-04-19T11:15:29Z</time>
      </trkpt>
      <trkpt lat="43.23144" lon="6.39314">
        <ele>500.4</ele>
        <time>2015-04-19T11:15:38Z</time>
      </trkpt>
      <trkpt lat="43.23143" lon="6.39312">
        <ele>500.8</ele>
        <time>2015-04-19T11:15:39Z</time>
      </trkpt>
      <trkpt lat="43.23131" lon="6.39297">
        <ele>503</ele>
        <time>2015-04-19T11:16:01Z</time>
      </trkpt>
      <trkpt lat="43.23132" lon="6.39285">
        <ele>503.7</ele>
        <time>2015-04-19T11:16:08Z</time>
      </trkpt>
      <trkpt lat="43.23129" lon="6.39275">
        <ele>504.5</ele>
        <time>2015-04-19T11:16:17Z</time>
      </trkpt>
      <trkpt lat="43.23128" lon="6.39264">
        <ele>505.2</ele>
        <time>2015-04-19T11:16:25Z</time>
      </trkpt>
      <trkpt lat="43.23126" lon="6.39252">
        <ele>505.3</ele>
        <time>2015-04-19T11:16:36Z</time>
      </trkpt>
      <trkpt lat="43.23118" lon="6.39246">
        <ele>507.1</ele>
        <time>2015-04-19T11:16:49Z</time>
      </trkpt>
      <trkpt lat="43.23118" lon="6.39245">
        <ele>507.4</ele>
        <time>2015-04-19T11:16:50Z</time>
      </trkpt>
      <trkpt lat="43.23108" lon="6.39229">
        <ele>507.7</ele>
        <time>2015-04-19T11:17:06Z</time>
      </trkpt>
      <trkpt lat="43.23107" lon="6.39218">
        <ele>511.2</ele>
        <time>2015-04-19T11:17:21Z</time>
      </trkpt>
      <trkpt lat="43.23105" lon="6.39206">
        <ele>512.1</ele>
        <time>2015-04-19T11:17:29Z</time>
      </trkpt>
      <trkpt lat="43.23105" lon="6.39194">
        <ele>512.9</ele>
        <time>2015-04-19T11:17:38Z</time>
      </trkpt>
      <trkpt lat="43.23104" lon="6.39182">
        <ele>514.1</ele>
        <time>2015-04-19T11:17:46Z</time>
      </trkpt>
      <trkpt lat="43.23099" lon="6.39173">
        <ele>514.9</ele>
        <time>2015-04-19T11:17:54Z</time>
      </trkpt>
      <trkpt lat="43.23099" lon="6.39172">
        <ele>514.8</ele>
        <time>2015-04-19T11:17:55Z</time>
      </trkpt>
      <trkpt lat="43.23091" lon="6.39155">
        <ele>517.1</ele>
        <time>2015-04-19T11:18:13Z</time>
      </trkpt>
      <trkpt lat="43.23083" lon="6.39149">
        <ele>517.3</ele>
        <time>2015-04-19T11:18:39Z</time>
      </trkpt>
      <trkpt lat="43.23078" lon="6.39139">
        <ele>517.3</ele>
        <time>2015-04-19T11:19:52Z</time>
      </trkpt>
      <trkpt lat="43.23078" lon="6.39138">
        <ele>517.3</ele>
        <time>2015-04-19T11:19:53Z</time>
      </trkpt>
      <trkpt lat="43.23077" lon="6.39138">
        <ele>515.9</ele>
        <time>2015-04-19T11:21:03Z</time>
      </trkpt>
      <trkpt lat="43.23078" lon="6.39137">
        <ele>516</ele>
        <time>2015-04-19T11:21:04Z</time>
      </trkpt>
      <trkpt lat="43.23073" lon="6.39115">
        <ele>515.2</ele>
        <time>2015-04-19T11:21:19Z</time>
      </trkpt>
      <trkpt lat="43.2307" lon="6.39103">
        <ele>515.5</ele>
        <time>2015-04-19T11:21:27Z</time>
      </trkpt>
      <trkpt lat="43.23069" lon="6.39092">
        <ele>514.4</ele>
        <time>2015-04-19T11:21:33Z</time>
      </trkpt>
      <trkpt lat="43.23069" lon="6.3908">
        <ele>513.9</ele>
        <time>2015-04-19T11:21:39Z</time>
      </trkpt>
      <trkpt lat="43.23068" lon="6.3907">
        <ele>513.1</ele>
        <time>2015-04-19T11:21:44Z</time>
      </trkpt>
      <trkpt lat="43.23066" lon="6.39058">
        <ele>513.4</ele>
        <time>2015-04-19T11:21:48Z</time>
      </trkpt>
      <trkpt lat="43.2306" lon="6.3905">
        <ele>513</ele>
        <time>2015-04-19T11:21:53Z</time>
      </trkpt>
      <trkpt lat="43.23056" lon="6.39041">
        <ele>512.4</ele>
        <time>2015-04-19T11:22:00Z</time>
      </trkpt>
      <trkpt lat="43.23055" lon="6.3903">
        <ele>512.1</ele>
        <time>2015-04-19T11:22:04Z</time>
      </trkpt>
      <trkpt lat="43.23054" lon="6.39028">
        <ele>511.8</ele>
        <time>2015-04-19T11:22:05Z</time>
      </trkpt>
      <trkpt lat="43.23051" lon="6.39009">
        <ele>510.7</ele>
        <time>2015-04-19T11:22:21Z</time>
      </trkpt>
      <trkpt lat="43.2305" lon="6.38998">
        <ele>510.5</ele>
        <time>2015-04-19T11:22:29Z</time>
      </trkpt>
      <trkpt lat="43.23048" lon="6.38987">
        <ele>510.7</ele>
        <time>2015-04-19T11:22:36Z</time>
      </trkpt>
      <trkpt lat="43.23049" lon="6.38976">
        <ele>509.2</ele>
        <time>2015-04-19T11:22:44Z</time>
      </trkpt>
      <trkpt lat="43.2305" lon="6.38965">
        <ele>508.6</ele>
        <time>2015-04-19T11:22:52Z</time>
      </trkpt>
      <trkpt lat="43.23049" lon="6.38954">
        <ele>507.7</ele>
        <time>2015-04-19T11:22:57Z</time>
      </trkpt>
      <trkpt lat="43.23048" lon="6.38943">
        <ele>508.5</ele>
        <time>2015-04-19T11:23:09Z</time>
      </trkpt>
      <trkpt lat="43.23048" lon="6.38941">
        <ele>508.4</ele>
        <time>2015-04-19T11:23:10Z</time>
      </trkpt>
      <trkpt lat="43.23049" lon="6.38921">
        <ele>507.1</ele>
        <time>2015-04-19T11:23:21Z</time>
      </trkpt>
      <trkpt lat="43.23047" lon="6.3891">
        <ele>506.2</ele>
        <time>2015-04-19T11:23:28Z</time>
      </trkpt>
      <trkpt lat="43.23045" lon="6.38899">
        <ele>505.9</ele>
        <time>2015-04-19T11:23:35Z</time>
      </trkpt>
      <trkpt lat="43.23043" lon="6.38887">
        <ele>504.7</ele>
        <time>2015-04-19T11:23:42Z</time>
      </trkpt>
      <trkpt lat="43.23041" lon="6.38875">
        <ele>504.4</ele>
        <time>2015-04-19T11:23:50Z</time>
      </trkpt>
      <trkpt lat="43.2304" lon="6.38863">
        <ele>503.4</ele>
        <time>2015-04-19T11:23:57Z</time>
      </trkpt>
      <trkpt lat="43.23038" lon="6.38852">
        <ele>501.9</ele>
        <time>2015-04-19T11:24:05Z</time>
      </trkpt>
      <trkpt lat="43.23039" lon="6.38841">
        <ele>501.7</ele>
        <time>2015-04-19T11:24:11Z</time>
      </trkpt>
      <trkpt lat="43.23038" lon="6.3884">
        <ele>501.6</ele>
        <time>2015-04-19T11:24:12Z</time>
      </trkpt>
      <trkpt lat="43.2303" lon="6.38822">
        <ele>501.5</ele>
        <time>2015-04-19T11:24:25Z</time>
      </trkpt>
      <trkpt lat="43.23024" lon="6.38814">
        <ele>500.3</ele>
        <time>2015-04-19T11:24:31Z</time>
      </trkpt>
      <trkpt lat="43.23019" lon="6.38805">
        <ele>500</ele>
        <time>2015-04-19T11:24:38Z</time>
      </trkpt>
      <trkpt lat="43.23013" lon="6.38798">
        <ele>499.5</ele>
        <time>2015-04-19T11:24:43Z</time>
      </trkpt>
      <trkpt lat="43.23006" lon="6.38791">
        <ele>499.5</ele>
        <time>2015-04-19T11:24:50Z</time>
      </trkpt>
      <trkpt lat="43.23" lon="6.38782">
        <ele>498.5</ele>
        <time>2015-04-19T11:24:56Z</time>
      </trkpt>
      <trkpt lat="43.22995" lon="6.38774">
        <ele>499.3</ele>
        <time>2015-04-19T11:25:04Z</time>
      </trkpt>
      <trkpt lat="43.22987" lon="6.38767">
        <ele>499.9</ele>
        <time>2015-04-19T11:25:12Z</time>
      </trkpt>
      <trkpt lat="43.22986" lon="6.38766">
        <ele>500.3</ele>
        <time>2015-04-19T11:25:13Z</time>
      </trkpt>
      <trkpt lat="43.22978" lon="6.3875">
        <ele>500.3</ele>
        <time>2015-04-19T11:25:25Z</time>
      </trkpt>
      <trkpt lat="43.22973" lon="6.38742">
        <ele>500.1</ele>
        <time>2015-04-19T11:25:30Z</time>
      </trkpt>
      <trkpt lat="43.22967" lon="6.38734">
        <ele>500.2</ele>
        <time>2015-04-19T11:25:39Z</time>
      </trkpt>
      <trkpt lat="43.22962" lon="6.38724">
        <ele>500.4</ele>
        <time>2015-04-19T11:25:46Z</time>
      </trkpt>
      <trkpt lat="43.22959" lon="6.38713">
        <ele>500</ele>
        <time>2015-04-19T11:25:54Z</time>
      </trkpt>
      <trkpt lat="43.22957" lon="6.38702">
        <ele>499.8</ele>
        <time>2015-04-19T11:26:02Z</time>
      </trkpt>
      <trkpt lat="43.22954" lon="6.38691">
        <ele>499.5</ele>
        <time>2015-04-19T11:26:09Z</time>
      </trkpt>
      <trkpt lat="43.2295" lon="6.3868">
        <ele>497.8</ele>
        <time>2015-04-19T11:26:50Z</time>
      </trkpt>
      <trkpt lat="43.2295" lon="6.38679">
        <ele>497.8</ele>
        <time>2015-04-19T11:26:51Z</time>
      </trkpt>
      <trkpt lat="43.22946" lon="6.38657">
        <ele>496.7</ele>
        <time>2015-04-19T11:27:11Z</time>
      </trkpt>
      <trkpt lat="43.22946" lon="6.38645">
        <ele>495.4</ele>
        <time>2015-04-19T11:27:19Z</time>
      </trkpt>
      <trkpt lat="43.22945" lon="6.38633">
        <ele>495.1</ele>
        <time>2015-04-19T11:27:27Z</time>
      </trkpt>
      <trkpt lat="43.22943" lon="6.38622">
        <ele>494.1</ele>
        <time>2015-04-19T11:27:34Z</time>
      </trkpt>
      <trkpt lat="43.22944" lon="6.3861">
        <ele>493.5</ele>
        <time>2015-04-19T11:27:41Z</time>
      </trkpt>
      <trkpt lat="43.22942" lon="6.38599">
        <ele>493.2</ele>
        <time>2015-04-19T11:27:49Z</time>
      </trkpt>
      <trkpt lat="43.22943" lon="6.38587">
        <ele>492.8</ele>
        <time>2015-04-19T11:27:56Z</time>
      </trkpt>
      <trkpt lat="43.22944" lon="6.38585">
        <ele>492.8</ele>
        <time>2015-04-19T11:27:57Z</time>
      </trkpt>
      <trkpt lat="43.22943" lon="6.38564">
        <ele>493</ele>
        <time>2015-04-19T11:28:14Z</time>
      </trkpt>
      <trkpt lat="43.22941" lon="6.38552">
        <ele>493.8</ele>
        <time>2015-04-19T11:28:23Z</time>
      </trkpt>
      <trkpt lat="43.22934" lon="6.38545">
        <ele>493.2</ele>
        <time>2015-04-19T11:28:28Z</time>
      </trkpt>
      <trkpt lat="43.2293" lon="6.38534">
        <ele>492.7</ele>
        <time>2015-04-19T11:28:35Z</time>
      </trkpt>
      <trkpt lat="43.22926" lon="6.38525">
        <ele>492.8</ele>
        <time>2015-04-19T11:28:43Z</time>
      </trkpt>
      <trkpt lat="43.22925" lon="6.38513">
        <ele>493.1</ele>
        <time>2015-04-19T11:28:50Z</time>
      </trkpt>
      <trkpt lat="43.22921" lon="6.38504">
        <ele>492.3</ele>
        <time>2015-04-19T11:28:57Z</time>
      </trkpt>
      <trkpt lat="43.2292" lon="6.38502">
        <ele>492.1</ele>
        <time>2015-04-19T11:28:58Z</time>
      </trkpt>
      <trkpt lat="43.22909" lon="6.38487">
        <ele>491.3</ele>
        <time>2015-04-19T11:29:09Z</time>
      </trkpt>
      <trkpt lat="43.22906" lon="6.38477">
        <ele>491.3</ele>
        <time>2015-04-19T11:29:17Z</time>
      </trkpt>
      <trkpt lat="43.229" lon="6.38469">
        <ele>491.1</ele>
        <time>2015-04-19T11:29:23Z</time>
      </trkpt>
      <trkpt lat="43.22896" lon="6.38459">
        <ele>491.3</ele>
        <time>2015-04-19T11:29:30Z</time>
      </trkpt>
      <trkpt lat="43.22891" lon="6.3845">
        <ele>490.2</ele>
        <time>2015-04-19T11:29:37Z</time>
      </trkpt>
      <trkpt lat="43.22892" lon="6.38438">
        <ele>489</ele>
        <time>2015-04-19T11:29:46Z</time>
      </trkpt>
      <trkpt lat="43.22894" lon="6.38426">
        <ele>488.8</ele>
        <time>2015-04-19T11:29:53Z</time>
      </trkpt>
      <trkpt lat="43.22897" lon="6.38416">
        <ele>488.1</ele>
        <time>2015-04-19T11:30:00Z</time>
      </trkpt>
      <trkpt lat="43.22898" lon="6.38415">
        <ele>488</ele>
        <time>2015-04-19T11:30:01Z</time>
      </trkpt>
      <trkpt lat="43.2291" lon="6.38407">
        <ele>487.1</ele>
        <time>2015-04-19T11:30:24Z</time>
      </trkpt>
      <trkpt lat="43.22918" lon="6.38405">
        <ele>486.8</ele>
        <time>2015-04-19T11:30:29Z</time>
      </trkpt>
      <trkpt lat="43.22926" lon="6.38403">
        <ele>486</ele>
        <time>2015-04-19T11:30:36Z</time>
      </trkpt>
      <trkpt lat="43.22932" lon="6.38395">
        <ele>485.4</ele>
        <time>2015-04-19T11:30:40Z</time>
      </trkpt>
      <trkpt lat="43.22935" lon="6.38386">
        <ele>484.7</ele>
        <time>2015-04-19T11:30:47Z</time>
      </trkpt>
      <trkpt lat="43.22936" lon="6.38375">
        <ele>484.3</ele>
        <time>2015-04-19T11:30:53Z</time>
      </trkpt>
      <trkpt lat="43.22938" lon="6.38364">
        <ele>483.9</ele>
        <time>2015-04-19T11:30:59Z</time>
      </trkpt>
      <trkpt lat="43.22944" lon="6.38355">
        <ele>483.2</ele>
        <time>2015-04-19T11:31:07Z</time>
      </trkpt>
      <trkpt lat="43.22944" lon="6.38353">
        <ele>482.9</ele>
        <time>2015-04-19T11:31:08Z</time>
      </trkpt>
      <trkpt lat="43.22951" lon="6.38334">
        <ele>480.9</ele>
        <time>2015-04-19T11:31:24Z</time>
      </trkpt>
      <trkpt lat="43.22954" lon="6.38323">
        <ele>480.5</ele>
        <time>2015-04-19T11:31:33Z</time>
      </trkpt>
      <trkpt lat="43.22956" lon="6.38313">
        <ele>480</ele>
        <time>2015-04-19T11:31:43Z</time>
      </trkpt>
      <trkpt lat="43.2296" lon="6.38303">
        <ele>478.8</ele>
        <time>2015-04-19T11:31:50Z</time>
      </trkpt>
      <trkpt lat="43.22963" lon="6.38291">
        <ele>478</ele>
        <time>2015-04-19T11:32:04Z</time>
      </trkpt>
      <trkpt lat="43.22954" lon="6.38284">
        <ele>477.1</ele>
        <time>2015-04-19T11:33:12Z</time>
      </trkpt>
      <trkpt lat="43.22955" lon="6.38282">
        <ele>477</ele>
        <time>2015-04-19T11:33:13Z</time>
      </trkpt>
      <trkpt lat="43.22939" lon="6.38275">
        <ele>473</ele>
        <time>2015-04-19T11:33:52Z</time>
      </trkpt>
      <trkpt lat="43.2293" lon="6.38272">
        <ele>469</ele>
        <time>2015-04-19T11:34:10Z</time>
      </trkpt>
      <trkpt lat="43.22924" lon="6.38263">
        <ele>466.5</ele>
        <time>2015-04-19T11:34:26Z</time>
      </trkpt>
      <trkpt lat="43.22923" lon="6.38262">
        <ele>466.2</ele>
        <time>2015-04-19T11:34:27Z</time>
      </trkpt>
      <trkpt lat="43.22921" lon="6.38241">
        <ele>463.7</ele>
        <time>2015-04-19T11:35:07Z</time>
      </trkpt>
      <trkpt lat="43.22926" lon="6.38233">
        <ele>462.7</ele>
        <time>2015-04-19T11:35:20Z</time>
      </trkpt>
      <trkpt lat="43.22919" lon="6.38223">
        <ele>462</ele>
        <time>2015-04-19T11:35:46Z</time>
      </trkpt>
      <trkpt lat="43.22919" lon="6.38222">
        <ele>462.4</ele>
        <time>2015-04-19T11:35:48Z</time>
      </trkpt>
      <trkpt lat="43.22936" lon="6.38219">
        <ele>465.2</ele>
        <time>2015-04-19T11:36:33Z</time>
      </trkpt>
      <trkpt lat="43.22928" lon="6.38217">
        <ele>464</ele>
        <time>2015-04-19T11:37:05Z</time>
      </trkpt>
      <trkpt lat="43.22927" lon="6.38216">
        <ele>463.8</ele>
        <time>2015-04-19T11:37:06Z</time>
      </trkpt>
      <trkpt lat="43.22928" lon="6.38204">
        <ele>461.5</ele>
        <time>2015-04-19T11:38:20Z</time>
      </trkpt>
      <trkpt lat="43.22927" lon="6.38207">
        <ele>460.8</ele>
        <time>2015-04-19T11:39:43Z</time>
      </trkpt>
      <trkpt lat="43.22926" lon="6.38207">
        <ele>460.9</ele>
        <time>2015-04-19T11:39:44Z</time>
      </trkpt>
      <trkpt lat="43.22918" lon="6.38211">
        <ele>460.7</ele>
        <time>2015-04-19T11:40:56Z</time>
      </trkpt>
      <trkpt lat="43.22915" lon="6.38206">
        <ele>458</ele>
        <time>2015-04-19T11:41:51Z</time>
      </trkpt>
      <trkpt lat="43.22914" lon="6.38194">
        <ele>456.6</ele>
        <time>2015-04-19T11:41:59Z</time>
      </trkpt>
      <trkpt lat="43.22914" lon="6.38193">
        <ele>456.6</ele>
        <time>2015-04-19T11:42:00Z</time>
      </trkpt>
      <trkpt lat="43.22914" lon="6.38169">
        <ele>452.7</ele>
        <time>2015-04-19T11:42:21Z</time>
      </trkpt>
      <trkpt lat="43.22915" lon="6.38154">
        <ele>451</ele>
        <time>2015-04-19T11:42:31Z</time>
      </trkpt>
      <trkpt lat="43.22912" lon="6.38143">
        <ele>449.3</ele>
        <time>2015-04-19T11:42:42Z</time>
      </trkpt>
      <trkpt lat="43.22903" lon="6.3813">
        <ele>446</ele>
        <time>2015-04-19T11:42:55Z</time>
      </trkpt>
      <trkpt lat="43.22903" lon="6.38117">
        <ele>446</ele>
        <time>2015-04-19T11:43:07Z</time>
      </trkpt>
      <trkpt lat="43.22902" lon="6.38116">
        <ele>446.1</ele>
        <time>2015-04-19T11:43:09Z</time>
      </trkpt>
      <trkpt lat="43.2289" lon="6.38095">
        <ele>439</ele>
        <time>2015-04-19T11:43:42Z</time>
      </trkpt>
      <trkpt lat="43.22894" lon="6.38081">
        <ele>436</ele>
        <time>2015-04-19T11:44:02Z</time>
      </trkpt>
      <trkpt lat="43.22896" lon="6.38068">
        <ele>431</ele>
        <time>2015-04-19T11:44:34Z</time>
      </trkpt>
      <trkpt lat="43.22897" lon="6.38068">
        <ele>431.9</ele>
        <time>2015-04-19T11:44:36Z</time>
      </trkpt>
      <trkpt lat="43.22902" lon="6.38042">
        <ele>426</ele>
        <time>2015-04-19T11:45:05Z</time>
      </trkpt>
      <trkpt lat="43.22906" lon="6.38029">
        <ele>421</ele>
        <time>2015-04-19T11:45:31Z</time>
      </trkpt>
      <trkpt lat="43.22904" lon="6.38015">
        <ele>416</ele>
        <time>2015-04-19T11:46:01Z</time>
      </trkpt>
      <trkpt lat="43.22903" lon="6.38015">
        <ele>416.7</ele>
        <time>2015-04-19T11:46:03Z</time>
      </trkpt>
      <trkpt lat="43.22909" lon="6.37986">
        <ele>407</ele>
        <time>2015-04-19T11:46:45Z</time>
      </trkpt>
      <trkpt lat="43.22905" lon="6.37973">
        <ele>404</ele>
        <time>2015-04-19T11:47:01Z</time>
      </trkpt>
      <trkpt lat="43.22897" lon="6.37963">
        <ele>400</ele>
        <time>2015-04-19T11:47:21Z</time>
      </trkpt>
      <trkpt lat="43.22897" lon="6.37963">
        <ele>400.8</ele>
        <time>2015-04-19T11:47:23Z</time>
      </trkpt>
      <trkpt lat="43.22893" lon="6.37935">
        <ele>395</ele>
        <time>2015-04-19T11:47:57Z</time>
      </trkpt>
      <trkpt lat="43.22892" lon="6.3792">
        <ele>389</ele>
        <time>2015-04-19T11:48:24Z</time>
      </trkpt>
      <trkpt lat="43.22892" lon="6.37919">
        <ele>389.8</ele>
        <time>2015-04-19T11:48:26Z</time>
      </trkpt>
      <trkpt lat="43.22889" lon="6.37894">
        <ele>382</ele>
        <time>2015-04-19T11:49:08Z</time>
      </trkpt>
      <trkpt lat="43.22889" lon="6.3788">
        <ele>377</ele>
        <time>2015-04-19T11:49:32Z</time>
      </trkpt>
      <trkpt lat="43.22888" lon="6.37879">
        <ele>377.4</ele>
        <time>2015-04-19T11:49:34Z</time>
      </trkpt>
      <trkpt lat="43.22875" lon="6.37856">
        <ele>369</ele>
        <time>2015-04-19T11:50:14Z</time>
      </trkpt>
      <trkpt lat="43.22868" lon="6.37847">
        <ele>366</ele>
        <time>2015-04-19T11:50:34Z</time>
      </trkpt>
      <trkpt lat="43.22867" lon="6.37847">
        <ele>366.5</ele>
        <time>2015-04-19T11:50:36Z</time>
      </trkpt>
      <trkpt lat="43.22859" lon="6.37825">
        <ele>362</ele>
        <time>2015-04-19T11:51:16Z</time>
      </trkpt>
      <trkpt lat="43.22855" lon="6.37815">
        <ele>359</ele>
        <time>2015-04-19T11:51:35Z</time>
      </trkpt>
      <trkpt lat="43.22854" lon="6.37814">
        <ele>359</ele>
        <time>2015-04-19T11:51:37Z</time>
      </trkpt>
      <trkpt lat="43.22841" lon="6.37793">
        <ele>351</ele>
        <time>2015-04-19T11:52:11Z</time>
      </trkpt>
      <trkpt lat="43.22836" lon="6.37777">
        <ele>349</ele>
        <time>2015-04-19T11:52:23Z</time>
      </trkpt>
      <trkpt lat="43.22831" lon="6.37761">
        <ele>347</ele>
        <time>2015-04-19T11:52:35Z</time>
      </trkpt>
      <trkpt lat="43.22821" lon="6.37752">
        <ele>345</ele>
        <time>2015-04-19T11:52:48Z</time>
      </trkpt>
      <trkpt lat="43.22821" lon="6.3775">
        <ele>345.4</ele>
        <time>2015-04-19T11:52:50Z</time>
      </trkpt>
      <trkpt lat="43.22821" lon="6.37731">
        <ele>341.9</ele>
        <time>2015-04-19T11:53:35Z</time>
      </trkpt>
      <trkpt lat="43.22814" lon="6.37736">
        <ele>342.1</ele>
        <time>2015-04-19T11:54:07Z</time>
      </trkpt>
      <trkpt lat="43.22813" lon="6.37737">
        <ele>342.1</ele>
        <time>2015-04-19T11:54:08Z</time>
      </trkpt>
      <trkpt lat="43.22799" lon="6.37748">
        <ele>340</ele>
        <time>2015-04-19T11:54:23Z</time>
      </trkpt>
      <trkpt lat="43.22786" lon="6.37757">
        <ele>341</ele>
        <time>2015-04-19T11:54:35Z</time>
      </trkpt>
      <trkpt lat="43.22779" lon="6.3777">
        <ele>340</ele>
        <time>2015-04-19T11:54:43Z</time>
      </trkpt>
      <trkpt lat="43.22763" lon="6.37778">
        <ele>341</ele>
        <time>2015-04-19T11:54:51Z</time>
      </trkpt>
      <trkpt lat="43.22754" lon="6.37778">
        <ele>340</ele>
        <time>2015-04-19T11:55:15Z</time>
      </trkpt>
      <trkpt lat="43.22753" lon="6.37777">
        <ele>340.7</ele>
        <time>2015-04-19T11:55:17Z</time>
      </trkpt>
      <trkpt lat="43.22768" lon="6.3776">
        <ele>341</ele>
        <time>2015-04-19T11:55:59Z</time>
      </trkpt>
      <trkpt lat="43.22778" lon="6.37752">
        <ele>340</ele>
        <time>2015-04-19T11:56:07Z</time>
      </trkpt>
      <trkpt lat="43.22791" lon="6.37746">
        <ele>339</ele>
        <time>2015-04-19T11:56:25Z</time>
      </trkpt>
      <trkpt lat="43.22793" lon="6.37744">
        <ele>339.8</ele>
        <time>2015-04-19T11:56:27Z</time>
      </trkpt>
      <trkpt lat="43.22793" lon="6.37724">
        <ele>339</ele>
        <time>2015-04-19T11:56:53Z</time>
      </trkpt>
      <trkpt lat="43.22792" lon="6.37709">
        <ele>337</ele>
        <time>2015-04-19T11:57:13Z</time>
      </trkpt>
      <trkpt lat="43.22792" lon="6.37696">
        <ele>337</ele>
        <time>2015-04-19T11:57:40Z</time>
      </trkpt>
      <trkpt lat="43.22793" lon="6.37696">
        <ele>337.3</ele>
        <time>2015-04-19T11:57:42Z</time>
      </trkpt>
      <trkpt lat="43.22807" lon="6.3767">
        <ele>336</ele>
        <time>2015-04-19T11:58:00Z</time>
      </trkpt>
      <trkpt lat="43.22815" lon="6.37657">
        <ele>336</ele>
        <time>2015-04-19T11:58:12Z</time>
      </trkpt>
      <trkpt lat="43.22817" lon="6.3764">
        <ele>335</ele>
        <time>2015-04-19T11:58:24Z</time>
      </trkpt>
      <trkpt lat="43.22824" lon="6.37626">
        <ele>335</ele>
        <time>2015-04-19T11:58:32Z</time>
      </trkpt>
      <trkpt lat="43.22828" lon="6.3761">
        <ele>335</ele>
        <time>2015-04-19T11:58:44Z</time>
      </trkpt>
      <trkpt lat="43.2283" lon="6.37608">
        <ele>335.4</ele>
        <time>2015-04-19T11:58:46Z</time>
      </trkpt>
      <trkpt lat="43.22838" lon="6.37589">
        <ele>334</ele>
        <time>2015-04-19T11:59:09Z</time>
      </trkpt>
      <trkpt lat="43.22846" lon="6.37575">
        <ele>333</ele>
        <time>2015-04-19T11:59:21Z</time>
      </trkpt>
      <trkpt lat="43.2285" lon="6.37559">
        <ele>332</ele>
        <time>2015-04-19T11:59:34Z</time>
      </trkpt>
      <trkpt lat="43.22851" lon="6.37546">
        <ele>331</ele>
        <time>2015-04-19T11:59:46Z</time>
      </trkpt>
      <trkpt lat="43.2285" lon="6.37546">
        <ele>331.9</ele>
        <time>2015-04-19T11:59:48Z</time>
      </trkpt>
      <trkpt lat="43.22856" lon="6.37515">
        <ele>332</ele>
        <time>2015-04-19T12:00:14Z</time>
      </trkpt>
      <trkpt lat="43.22864" lon="6.37504">
        <ele>332</ele>
        <time>2015-04-19T12:00:30Z</time>
      </trkpt>
      <trkpt lat="43.22869" lon="6.37493">
        <ele>331</ele>
        <time>2015-04-19T12:00:42Z</time>
      </trkpt>
      <trkpt lat="43.22876" lon="6.37478">
        <ele>330</ele>
        <time>2015-04-19T12:00:58Z</time>
      </trkpt>
      <trkpt lat="43.22878" lon="6.37476">
        <ele>330.6</ele>
        <time>2015-04-19T12:01:00Z</time>
      </trkpt>
      <trkpt lat="43.22895" lon="6.3746">
        <ele>330</ele>
        <time>2015-04-19T12:01:17Z</time>
      </trkpt>
      <trkpt lat="43.2289" lon="6.37448">
        <ele>329</ele>
        <time>2015-04-19T12:01:41Z</time>
      </trkpt>
      <trkpt lat="43.22892" lon="6.37435">
        <ele>329</ele>
        <time>2015-04-19T12:02:02Z</time>
      </trkpt>
      <trkpt lat="43.22894" lon="6.37433">
        <ele>329.8</ele>
        <time>2015-04-19T12:02:04Z</time>
      </trkpt>
      <trkpt lat="43.22906" lon="6.37407">
        <ele>329</ele>
        <time>2015-04-19T12:02:22Z</time>
      </trkpt>
      <trkpt lat="43.22909" lon="6.37395">
        <ele>329</ele>
        <time>2015-04-19T12:02:34Z</time>
      </trkpt>
      <trkpt lat="43.22913" lon="6.37378">
        <ele>329</ele>
        <time>2015-04-19T12:02:46Z</time>
      </trkpt>
      <trkpt lat="43.22917" lon="6.37365">
        <ele>329</ele>
        <time>2015-04-19T12:02:54Z</time>
      </trkpt>
      <trkpt lat="43.22924" lon="6.37352">
        <ele>329</ele>
        <time>2015-04-19T12:03:10Z</time>
      </trkpt>
      <trkpt lat="43.22925" lon="6.3735">
        <ele>329</ele>
        <time>2015-04-19T12:03:12Z</time>
      </trkpt>
      <trkpt lat="43.22921" lon="6.3733">
        <ele>328</ele>
        <time>2015-04-19T12:03:30Z</time>
      </trkpt>
      <trkpt lat="43.2292" lon="6.37317">
        <ele>328</ele>
        <time>2015-04-19T12:03:51Z</time>
      </trkpt>
      <trkpt lat="43.22926" lon="6.37307">
        <ele>329</ele>
        <time>2015-04-19T12:04:03Z</time>
      </trkpt>
      <trkpt lat="43.22934" lon="6.37301">
        <ele>327</ele>
        <time>2015-04-19T12:04:21Z</time>
      </trkpt>
      <trkpt lat="43.22935" lon="6.37301">
        <ele>327.3</ele>
        <time>2015-04-19T12:04:23Z</time>
      </trkpt>
      <trkpt lat="43.22943" lon="6.37271">
        <ele>327</ele>
        <time>2015-04-19T12:04:45Z</time>
      </trkpt>
      <trkpt lat="43.22946" lon="6.37255">
        <ele>326</ele>
        <time>2015-04-19T12:04:57Z</time>
      </trkpt>
      <trkpt lat="43.2294" lon="6.37243">
        <ele>326</ele>
        <time>2015-04-19T12:05:09Z</time>
      </trkpt>
      <trkpt lat="43.22939" lon="6.3723">
        <ele>327</ele>
        <time>2015-04-19T12:05:21Z</time>
      </trkpt>
      <trkpt lat="43.22946" lon="6.37219">
        <ele>328</ele>
        <time>2015-04-19T12:05:33Z</time>
      </trkpt>
      <trkpt lat="43.22946" lon="6.37218">
        <ele>328.6</ele>
        <time>2015-04-19T12:05:35Z</time>
      </trkpt>
      <trkpt lat="43.22951" lon="6.37192">
        <ele>327</ele>
        <time>2015-04-19T12:06:04Z</time>
      </trkpt>
      <trkpt lat="43.22959" lon="6.37185">
        <ele>326</ele>
        <time>2015-04-19T12:06:12Z</time>
      </trkpt>
      <trkpt lat="43.22966" lon="6.37173">
        <ele>327</ele>
        <time>2015-04-19T12:06:28Z</time>
      </trkpt>
      <trkpt lat="43.2297" lon="6.3716">
        <ele>326</ele>
        <time>2015-04-19T12:06:36Z</time>
      </trkpt>
      <trkpt lat="43.22971" lon="6.37157">
        <ele>326.7</ele>
        <time>2015-04-19T12:06:38Z</time>
      </trkpt>
      <trkpt lat="43.22986" lon="6.37138">
        <ele>325</ele>
        <time>2015-04-19T12:06:56Z</time>
      </trkpt>
      <trkpt lat="43.22995" lon="6.37133">
        <ele>325</ele>
        <time>2015-04-19T12:07:08Z</time>
      </trkpt>
      <trkpt lat="43.23006" lon="6.37126">
        <ele>324</ele>
        <time>2015-04-19T12:07:16Z</time>
      </trkpt>
      <trkpt lat="43.23013" lon="6.37118">
        <ele>323</ele>
        <time>2015-04-19T12:07:28Z</time>
      </trkpt>
      <trkpt lat="43.23025" lon="6.37114">
        <ele>323</ele>
        <time>2015-04-19T12:07:48Z</time>
      </trkpt>
      <trkpt lat="43.23027" lon="6.37113">
        <ele>323</ele>
        <time>2015-04-19T12:07:50Z</time>
      </trkpt>
      <trkpt lat="43.23044" lon="6.37102">
        <ele>322</ele>
        <time>2015-04-19T12:08:12Z</time>
      </trkpt>
      <trkpt lat="43.23054" lon="6.371">
        <ele>321</ele>
        <time>2015-04-19T12:08:36Z</time>
      </trkpt>
      <trkpt lat="43.23064" lon="6.37097">
        <ele>321</ele>
        <time>2015-04-19T12:08:48Z</time>
      </trkpt>
      <trkpt lat="43.23065" lon="6.37083">
        <ele>321</ele>
        <time>2015-04-19T12:09:00Z</time>
      </trkpt>
      <trkpt lat="43.23066" lon="6.37081">
        <ele>321.2</ele>
        <time>2015-04-19T12:09:02Z</time>
      </trkpt>
      <trkpt lat="43.23081" lon="6.37057">
        <ele>319</ele>
        <time>2015-04-19T12:09:20Z</time>
      </trkpt>
      <trkpt lat="43.2309" lon="6.37049">
        <ele>318</ele>
        <time>2015-04-19T12:09:38Z</time>
      </trkpt>
      <trkpt lat="43.23099" lon="6.37042">
        <ele>316</ele>
        <time>2015-04-19T12:09:52Z</time>
      </trkpt>
      <trkpt lat="43.23108" lon="6.37031">
        <ele>314</ele>
        <time>2015-04-19T12:10:10Z</time>
      </trkpt>
      <trkpt lat="43.2311" lon="6.37029">
        <ele>314.7</ele>
        <time>2015-04-19T12:10:14Z</time>
      </trkpt>
      <trkpt lat="43.23126" lon="6.37025">
        <ele>314</ele>
        <time>2015-04-19T12:10:47Z</time>
      </trkpt>
      <trkpt lat="43.23132" lon="6.37012">
        <ele>313</ele>
        <time>2015-04-19T12:11:07Z</time>
      </trkpt>
      <trkpt lat="43.23141" lon="6.37005">
        <ele>313</ele>
        <time>2015-04-19T12:11:23Z</time>
      </trkpt>
      <trkpt lat="43.23143" lon="6.37004">
        <ele>313.9</ele>
        <time>2015-04-19T12:11:25Z</time>
      </trkpt>
      <trkpt lat="43.23156" lon="6.36979">
        <ele>313</ele>
        <time>2015-04-19T12:11:48Z</time>
      </trkpt>
      <trkpt lat="43.23164" lon="6.36971">
        <ele>312</ele>
        <time>2015-04-19T12:12:01Z</time>
      </trkpt>
      <trkpt lat="43.23173" lon="6.36963">
        <ele>311</ele>
        <time>2015-04-19T12:12:09Z</time>
      </trkpt>
      <trkpt lat="43.2318" lon="6.36954">
        <ele>311</ele>
        <time>2015-04-19T12:12:17Z</time>
      </trkpt>
      <trkpt lat="43.23188" lon="6.36942">
        <ele>310</ele>
        <time>2015-04-19T12:12:33Z</time>
      </trkpt>
      <trkpt lat="43.2319" lon="6.36939">
        <ele>311.1</ele>
        <time>2015-04-19T12:12:35Z</time>
      </trkpt>
      <trkpt lat="43.23202" lon="6.36922">
        <ele>309</ele>
        <time>2015-04-19T12:13:01Z</time>
      </trkpt>
      <trkpt lat="43.23195" lon="6.36912">
        <ele>308</ele>
        <time>2015-04-19T12:13:20Z</time>
      </trkpt>
      <trkpt lat="43.23187" lon="6.36899">
        <ele>308</ele>
        <time>2015-04-19T12:13:53Z</time>
      </trkpt>
      <trkpt lat="43.23185" lon="6.36897">
        <ele>309.2</ele>
        <time>2015-04-19T12:13:57Z</time>
      </trkpt>
      <trkpt lat="43.23208" lon="6.36902">
        <ele>309</ele>
        <time>2015-04-19T12:14:38Z</time>
      </trkpt>
      <trkpt lat="43.2322" lon="6.36897">
        <ele>309</ele>
        <time>2015-04-19T12:14:51Z</time>
      </trkpt>
      <trkpt lat="43.23228" lon="6.36888">
        <ele>308</ele>
        <time>2015-04-19T12:15:07Z</time>
      </trkpt>
      <trkpt lat="43.23229" lon="6.36887">
        <ele>308.5</ele>
        <time>2015-04-19T12:15:09Z</time>
      </trkpt>
      <trkpt lat="43.23239" lon="6.3687">
        <ele>307</ele>
        <time>2015-04-19T12:15:35Z</time>
      </trkpt>
      <trkpt lat="43.2325" lon="6.3687">
        <ele>307</ele>
        <time>2015-04-19T12:15:43Z</time>
      </trkpt>
      <trkpt lat="43.23259" lon="6.36868">
        <ele>307</ele>
        <time>2015-04-19T12:15:55Z</time>
      </trkpt>
      <trkpt lat="43.23271" lon="6.36873">
        <ele>307</ele>
        <time>2015-04-19T12:16:21Z</time>
      </trkpt>
      <trkpt lat="43.23276" lon="6.36872">
        <ele>307.5</ele>
        <time>2015-04-19T12:16:24Z</time>
      </trkpt>
      <trkpt lat="43.23289" lon="6.3687">
        <ele>308.8</ele>
        <time>2015-04-19T12:16:53Z</time>
      </trkpt>
      <trkpt lat="43.23295" lon="6.36862">
        <ele>309</ele>
        <time>2015-04-19T12:17:07Z</time>
      </trkpt>
      <trkpt lat="43.23304" lon="6.36859">
        <ele>310.9</ele>
        <time>2015-04-19T12:17:50Z</time>
      </trkpt>
      <trkpt lat="43.23304" lon="6.36858">
        <ele>311.1</ele>
        <time>2015-04-19T12:17:51Z</time>
      </trkpt>
      <trkpt lat="43.23311" lon="6.36839">
        <ele>313.7</ele>
        <time>2015-04-19T12:18:06Z</time>
      </trkpt>
      <trkpt lat="43.23319" lon="6.36832">
        <ele>312.9</ele>
        <time>2015-04-19T12:18:17Z</time>
      </trkpt>
      <trkpt lat="43.23324" lon="6.36823">
        <ele>311.5</ele>
        <time>2015-04-19T12:18:30Z</time>
      </trkpt>
      <trkpt lat="43.2333" lon="6.36815">
        <ele>311</ele>
        <time>2015-04-19T12:18:41Z</time>
      </trkpt>
      <trkpt lat="43.23335" lon="6.36807">
        <ele>311.1</ele>
        <time>2015-04-19T12:18:47Z</time>
      </trkpt>
      <trkpt lat="43.2334" lon="6.36798">
        <ele>311</ele>
        <time>2015-04-19T12:18:54Z</time>
      </trkpt>
      <trkpt lat="43.23341" lon="6.36797">
        <ele>310.9</ele>
        <time>2015-04-19T12:18:55Z</time>
      </trkpt>
      <trkpt lat="43.23351" lon="6.36781">
        <ele>310.9</ele>
        <time>2015-04-19T12:19:09Z</time>
      </trkpt>
      <trkpt lat="43.23357" lon="6.36773">
        <ele>310.1</ele>
        <time>2015-04-19T12:19:15Z</time>
      </trkpt>
      <trkpt lat="43.23366" lon="6.36771">
        <ele>311.1</ele>
        <time>2015-04-19T12:19:30Z</time>
      </trkpt>
      <trkpt lat="43.2337" lon="6.36761">
        <ele>310.4</ele>
        <time>2015-04-19T12:19:42Z</time>
      </trkpt>
      <trkpt lat="43.23374" lon="6.36751">
        <ele>309.6</ele>
        <time>2015-04-19T12:19:49Z</time>
      </trkpt>
      <trkpt lat="43.23379" lon="6.36741">
        <ele>310.2</ele>
        <time>2015-04-19T12:19:55Z</time>
      </trkpt>
      <trkpt lat="43.23379" lon="6.3674">
        <ele>310.2</ele>
        <time>2015-04-19T12:19:56Z</time>
      </trkpt>
      <trkpt lat="43.23393" lon="6.36727">
        <ele>309.5</ele>
        <time>2015-04-19T12:20:12Z</time>
      </trkpt>
      <trkpt lat="43.23399" lon="6.36721">
        <ele>311</ele>
        <time>2015-04-19T12:20:20Z</time>
      </trkpt>
      <trkpt lat="43.23404" lon="6.36711">
        <ele>310.5</ele>
        <time>2015-04-19T12:20:28Z</time>
      </trkpt>
      <trkpt lat="43.23411" lon="6.36703">
        <ele>311.1</ele>
        <time>2015-04-19T12:20:37Z</time>
      </trkpt>
      <trkpt lat="43.23416" lon="6.36693">
        <ele>310.5</ele>
        <time>2015-04-19T12:20:48Z</time>
      </trkpt>
      <trkpt lat="43.23418" lon="6.36682">
        <ele>311</ele>
        <time>2015-04-19T12:20:57Z</time>
      </trkpt>
      <trkpt lat="43.23419" lon="6.36681">
        <ele>311.2</ele>
        <time>2015-04-19T12:20:58Z</time>
      </trkpt>
      <trkpt lat="43.23429" lon="6.36662">
        <ele>311.9</ele>
        <time>2015-04-19T12:21:15Z</time>
      </trkpt>
      <trkpt lat="43.23433" lon="6.36651">
        <ele>313.1</ele>
        <time>2015-04-19T12:21:29Z</time>
      </trkpt>
      <trkpt lat="43.23438" lon="6.36643">
        <ele>312.7</ele>
        <time>2015-04-19T12:21:49Z</time>
      </trkpt>
      <trkpt lat="43.23445" lon="6.36636">
        <ele>315.1</ele>
        <time>2015-04-19T12:21:57Z</time>
      </trkpt>
      <trkpt lat="43.23451" lon="6.36628">
        <ele>314</ele>
        <time>2015-04-19T12:22:05Z</time>
      </trkpt>
      <trkpt lat="43.23452" lon="6.36627">
        <ele>314</ele>
        <time>2015-04-19T12:22:06Z</time>
      </trkpt>
      <trkpt lat="43.23464" lon="6.36614">
        <ele>312.3</ele>
        <time>2015-04-19T12:22:25Z</time>
      </trkpt>
      <trkpt lat="43.23469" lon="6.36605">
        <ele>312.8</ele>
        <time>2015-04-19T12:22:33Z</time>
      </trkpt>
      <trkpt lat="43.23473" lon="6.36594">
        <ele>313.2</ele>
        <time>2015-04-19T12:22:49Z</time>
      </trkpt>
      <trkpt lat="43.23478" lon="6.36584">
        <ele>313.4</ele>
        <time>2015-04-19T12:23:06Z</time>
      </trkpt>
      <trkpt lat="43.23478" lon="6.36584">
        <ele>313.6</ele>
        <time>2015-04-19T12:23:07Z</time>
      </trkpt>
      <trkpt lat="43.23488" lon="6.36564">
        <ele>313.9</ele>
        <time>2015-04-19T12:23:34Z</time>
      </trkpt>
      <trkpt lat="43.23488" lon="6.36552">
        <ele>312.2</ele>
        <time>2015-04-19T12:23:55Z</time>
      </trkpt>
      <trkpt lat="43.23495" lon="6.36544">
        <ele>311</ele>
        <time>2015-04-19T12:25:21Z</time>
      </trkpt>
      <trkpt lat="43.23492" lon="6.36541">
        <ele>311.8</ele>
        <time>2015-04-19T12:25:25Z</time>
      </trkpt>
      <trkpt lat="43.235" lon="6.36526">
        <ele>311.9</ele>
        <time>2015-04-19T12:26:03Z</time>
      </trkpt>
      <trkpt lat="43.23496" lon="6.36516">
        <ele>312.6</ele>
        <time>2015-04-19T12:27:02Z</time>
      </trkpt>
      <trkpt lat="43.23495" lon="6.36515">
        <ele>312.4</ele>
        <time>2015-04-19T12:27:03Z</time>
      </trkpt>
      <trkpt lat="43.23488" lon="6.36497">
        <ele>313</ele>
        <time>2015-04-19T12:27:16Z</time>
      </trkpt>
      <trkpt lat="43.23485" lon="6.36487">
        <ele>312.9</ele>
        <time>2015-04-19T12:27:23Z</time>
      </trkpt>
      <trkpt lat="43.23479" lon="6.3648">
        <ele>313.2</ele>
        <time>2015-04-19T12:27:28Z</time>
      </trkpt>
      <trkpt lat="43.23473" lon="6.36472">
        <ele>312.9</ele>
        <time>2015-04-19T12:27:36Z</time>
      </trkpt>
      <trkpt lat="43.23468" lon="6.36464">
        <ele>312.9</ele>
        <time>2015-04-19T12:27:42Z</time>
      </trkpt>
      <trkpt lat="43.23462" lon="6.36457">
        <ele>312.7</ele>
        <time>2015-04-19T12:27:48Z</time>
      </trkpt>
      <trkpt lat="43.23458" lon="6.36447">
        <ele>313.1</ele>
        <time>2015-04-19T12:27:55Z</time>
      </trkpt>
      <trkpt lat="43.23453" lon="6.36437">
        <ele>313.3</ele>
        <time>2015-04-19T12:28:02Z</time>
      </trkpt>
      <trkpt lat="43.23448" lon="6.36428">
        <ele>313.3</ele>
        <time>2015-04-19T12:28:09Z</time>
      </trkpt>
      <trkpt lat="43.23448" lon="6.36426">
        <ele>313.2</ele>
        <time>2015-04-19T12:28:10Z</time>
      </trkpt>
      <trkpt lat="43.23441" lon="6.36406">
        <ele>313.9</ele>
        <time>2015-04-19T12:28:24Z</time>
      </trkpt>
      <trkpt lat="43.23439" lon="6.36395">
        <ele>314.3</ele>
        <time>2015-04-19T12:28:32Z</time>
      </trkpt>
      <trkpt lat="43.23437" lon="6.36384">
        <ele>314.6</ele>
        <time>2015-04-19T12:28:41Z</time>
      </trkpt>
      <trkpt lat="43.23438" lon="6.36372">
        <ele>314.9</ele>
        <time>2015-04-19T12:28:48Z</time>
      </trkpt>
      <trkpt lat="43.23436" lon="6.36362">
        <ele>315.5</ele>
        <time>2015-04-19T12:28:55Z</time>
      </trkpt>
      <trkpt lat="43.23434" lon="6.3635">
        <ele>314.7</ele>
        <time>2015-04-19T12:29:02Z</time>
      </trkpt>
      <trkpt lat="43.23431" lon="6.3634">
        <ele>314.9</ele>
        <time>2015-04-19T12:29:08Z</time>
      </trkpt>
      <trkpt lat="43.23429" lon="6.36329">
        <ele>315.2</ele>
        <time>2015-04-19T12:29:16Z</time>
      </trkpt>
      <trkpt lat="43.23429" lon="6.36328">
        <ele>315.3</ele>
        <time>2015-04-19T12:29:17Z</time>
      </trkpt>
      <trkpt lat="43.23426" lon="6.36306">
        <ele>315.7</ele>
        <time>2015-04-19T12:29:30Z</time>
      </trkpt>
      <trkpt lat="43.23427" lon="6.36294">
        <ele>315</ele>
        <time>2015-04-19T12:29:38Z</time>
      </trkpt>
      <trkpt lat="43.2343" lon="6.36283">
        <ele>315.7</ele>
        <time>2015-04-19T12:29:47Z</time>
      </trkpt>
      <trkpt lat="43.23433" lon="6.36272">
        <ele>316.3</ele>
        <time>2015-04-19T12:29:56Z</time>
      </trkpt>
      <trkpt lat="43.23436" lon="6.36262">
        <ele>315.4</ele>
        <time>2015-04-19T12:30:02Z</time>
      </trkpt>
      <trkpt lat="43.23441" lon="6.36252">
        <ele>315.4</ele>
        <time>2015-04-19T12:30:09Z</time>
      </trkpt>
      <trkpt lat="43.23447" lon="6.36244">
        <ele>316</ele>
        <time>2015-04-19T12:30:16Z</time>
      </trkpt>
      <trkpt lat="43.23451" lon="6.36234">
        <ele>316.2</ele>
        <time>2015-04-19T12:30:25Z</time>
      </trkpt>
      <trkpt lat="43.23452" lon="6.36232">
        <ele>316</ele>
        <time>2015-04-19T12:30:26Z</time>
      </trkpt>
      <trkpt lat="43.23459" lon="6.36214">
        <ele>317</ele>
        <time>2015-04-19T12:30:38Z</time>
      </trkpt>
      <trkpt lat="43.23462" lon="6.36204">
        <ele>316.5</ele>
        <time>2015-04-19T12:30:42Z</time>
      </trkpt>
      <trkpt lat="43.23461" lon="6.36193">
        <ele>316.3</ele>
        <time>2015-04-19T12:30:48Z</time>
      </trkpt>
      <trkpt lat="43.23462" lon="6.36182">
        <ele>317</ele>
        <time>2015-04-19T12:30:55Z</time>
      </trkpt>
      <trkpt lat="43.23462" lon="6.36172">
        <ele>317</ele>
        <time>2015-04-19T12:31:01Z</time>
      </trkpt>
      <trkpt lat="43.23465" lon="6.3616">
        <ele>317.4</ele>
        <time>2015-04-19T12:31:08Z</time>
      </trkpt>
      <trkpt lat="43.23469" lon="6.3615">
        <ele>318.1</ele>
        <time>2015-04-19T12:31:16Z</time>
      </trkpt>
      <trkpt lat="43.23472" lon="6.3614">
        <ele>318</ele>
        <time>2015-04-19T12:31:23Z</time>
      </trkpt>
      <trkpt lat="43.23477" lon="6.36129">
        <ele>319.1</ele>
        <time>2015-04-19T12:31:30Z</time>
      </trkpt>
      <trkpt lat="43.23477" lon="6.36128">
        <ele>318.9</ele>
        <time>2015-04-19T12:31:31Z</time>
      </trkpt>
      <trkpt lat="43.23484" lon="6.36109">
        <ele>319.2</ele>
        <time>2015-04-19T12:31:46Z</time>
      </trkpt>
      <trkpt lat="43.23489" lon="6.36099">
        <ele>320.1</ele>
        <time>2015-04-19T12:31:53Z</time>
      </trkpt>
      <trkpt lat="43.23493" lon="6.3609">
        <ele>320.2</ele>
        <time>2015-04-19T12:31:59Z</time>
      </trkpt>
      <trkpt lat="43.23498" lon="6.36081">
        <ele>320.1</ele>
        <time>2015-04-19T12:32:06Z</time>
      </trkpt>
      <trkpt lat="43.23501" lon="6.3607">
        <ele>320.2</ele>
        <time>2015-04-19T12:32:14Z</time>
      </trkpt>
      <trkpt lat="43.23507" lon="6.36062">
        <ele>319.6</ele>
        <time>2015-04-19T12:32:22Z</time>
      </trkpt>
      <trkpt lat="43.23512" lon="6.36051">
        <ele>320.5</ele>
        <time>2015-04-19T12:32:31Z</time>
      </trkpt>
      <trkpt lat="43.23512" lon="6.3605">
        <ele>320.8</ele>
        <time>2015-04-19T12:32:32Z</time>
      </trkpt>
      <trkpt lat="43.23524" lon="6.36035">
        <ele>321.9</ele>
        <time>2015-04-19T12:32:50Z</time>
      </trkpt>
      <trkpt lat="43.23532" lon="6.3603">
        <ele>322.9</ele>
        <time>2015-04-19T12:32:59Z</time>
      </trkpt>
      <trkpt lat="43.2354" lon="6.36026">
        <ele>322.8</ele>
        <time>2015-04-19T12:33:07Z</time>
      </trkpt>
      <trkpt lat="43.23547" lon="6.36023">
        <ele>323.1</ele>
        <time>2015-04-19T12:33:15Z</time>
      </trkpt>
      <trkpt lat="43.23555" lon="6.3602">
        <ele>323.7</ele>
        <time>2015-04-19T12:33:23Z</time>
      </trkpt>
      <trkpt lat="43.23563" lon="6.36016">
        <ele>323.5</ele>
        <time>2015-04-19T12:33:32Z</time>
      </trkpt>
      <trkpt lat="43.23564" lon="6.36016">
        <ele>323.4</ele>
        <time>2015-04-19T12:33:33Z</time>
      </trkpt>
      <trkpt lat="43.23579" lon="6.36008">
        <ele>325.2</ele>
        <time>2015-04-19T12:33:48Z</time>
      </trkpt>
      <trkpt lat="43.23585" lon="6.36005">
        <ele>325.9</ele>
        <time>2015-04-19T12:33:54Z</time>
      </trkpt>
      <trkpt lat="43.23593" lon="6.36008">
        <ele>325.7</ele>
        <time>2015-04-19T12:33:59Z</time>
      </trkpt>
      <trkpt lat="43.23602" lon="6.36008">
        <ele>326.9</ele>
        <time>2015-04-19T12:34:10Z</time>
      </trkpt>
      <trkpt lat="43.2361" lon="6.36006">
        <ele>326.5</ele>
        <time>2015-04-19T12:34:16Z</time>
      </trkpt>
      <trkpt lat="43.23618" lon="6.36005">
        <ele>326.8</ele>
        <time>2015-04-19T12:34:25Z</time>
      </trkpt>
      <trkpt lat="43.23625" lon="6.36001">
        <ele>326.5</ele>
        <time>2015-04-19T12:34:31Z</time>
      </trkpt>
      <trkpt lat="43.23634" lon="6.35998">
        <ele>326.5</ele>
        <time>2015-04-19T12:34:39Z</time>
      </trkpt>
      <trkpt lat="43.23635" lon="6.35998">
        <ele>326.3</ele>
        <time>2015-04-19T12:34:40Z</time>
      </trkpt>
      <trkpt lat="43.23649" lon="6.35991">
        <ele>326.9</ele>
        <time>2015-04-19T12:35:03Z</time>
      </trkpt>
      <trkpt lat="43.23656" lon="6.35984">
        <ele>326.3</ele>
        <time>2015-04-19T12:35:12Z</time>
      </trkpt>
      <trkpt lat="43.23663" lon="6.35977">
        <ele>326.2</ele>
        <time>2015-04-19T12:35:22Z</time>
      </trkpt>
      <trkpt lat="43.23671" lon="6.35974">
        <ele>326.3</ele>
        <time>2015-04-19T12:35:31Z</time>
      </trkpt>
      <trkpt lat="43.23678" lon="6.35967">
        <ele>327.5</ele>
        <time>2015-04-19T12:35:39Z</time>
      </trkpt>
      <trkpt lat="43.23683" lon="6.35958">
        <ele>328</ele>
        <time>2015-04-19T12:35:56Z</time>
      </trkpt>
      <trkpt lat="43.23682" lon="6.35956">
        <ele>327.9</ele>
        <time>2015-04-19T12:35:57Z</time>
      </trkpt>
      <trkpt lat="43.23694" lon="6.3594">
        <ele>328.4</ele>
        <time>2015-04-19T12:36:39Z</time>
      </trkpt>
      <trkpt lat="43.23699" lon="6.35931">
        <ele>327.6</ele>
        <time>2015-04-19T12:36:59Z</time>
      </trkpt>
      <trkpt lat="43.237" lon="6.35931">
        <ele>327.7</ele>
        <time>2015-04-19T12:37:00Z</time>
      </trkpt>
      <trkpt lat="43.23716" lon="6.35926">
        <ele>329.3</ele>
        <time>2015-04-19T12:37:25Z</time>
      </trkpt>
      <trkpt lat="43.23722" lon="6.35917">
        <ele>329.5</ele>
        <time>2015-04-19T12:37:38Z</time>
      </trkpt>
      <trkpt lat="43.23723" lon="6.35905">
        <ele>330</ele>
        <time>2015-04-19T12:37:53Z</time>
      </trkpt>
      <trkpt lat="43.23727" lon="6.35895">
        <ele>331.3</ele>
        <time>2015-04-19T12:38:09Z</time>
      </trkpt>
      <trkpt lat="43.23727" lon="6.35893">
        <ele>331.3</ele>
        <time>2015-04-19T12:38:10Z</time>
      </trkpt>
      <trkpt lat="43.23733" lon="6.35872">
        <ele>332.9</ele>
        <time>2015-04-19T12:38:33Z</time>
      </trkpt>
      <trkpt lat="43.23738" lon="6.35863">
        <ele>334.2</ele>
        <time>2015-04-19T12:38:47Z</time>
      </trkpt>
      <trkpt lat="43.23743" lon="6.35854">
        <ele>335.8</ele>
        <time>2015-04-19T12:38:54Z</time>
      </trkpt>
      <trkpt lat="43.23747" lon="6.35844">
        <ele>336.3</ele>
        <time>2015-04-19T12:39:06Z</time>
      </trkpt>
      <trkpt lat="43.23751" lon="6.35829">
        <ele>338</ele>
        <time>2015-04-19T12:39:19Z</time>
      </trkpt>
      <trkpt lat="43.23752" lon="6.35826">
        <ele>339.1</ele>
        <time>2015-04-19T12:39:21Z</time>
      </trkpt>
      <trkpt lat="43.23754" lon="6.35806">
        <ele>340.1</ele>
        <time>2015-04-19T12:39:56Z</time>
      </trkpt>
      <trkpt lat="43.23751" lon="6.35795">
        <ele>341.1</ele>
        <time>2015-04-19T12:40:16Z</time>
      </trkpt>
      <trkpt lat="43.23753" lon="6.35783">
        <ele>342.2</ele>
        <time>2015-04-19T12:40:35Z</time>
      </trkpt>
      <trkpt lat="43.23754" lon="6.35783">
        <ele>342.4</ele>
        <time>2015-04-19T12:40:36Z</time>
      </trkpt>
      <trkpt lat="43.2376" lon="6.35761">
        <ele>344.2</ele>
        <time>2015-04-19T12:41:48Z</time>
      </trkpt>
      <trkpt lat="43.23761" lon="6.3576">
        <ele>344.3</ele>
        <time>2015-04-19T12:41:49Z</time>
      </trkpt>
      <trkpt lat="43.23772" lon="6.35746">
        <ele>345.8</ele>
        <time>2015-04-19T12:42:09Z</time>
      </trkpt>
      <trkpt lat="43.23781" lon="6.35742">
        <ele>347.1</ele>
        <time>2015-04-19T12:42:21Z</time>
      </trkpt>
      <trkpt lat="43.23788" lon="6.35738">
        <ele>348.5</ele>
        <time>2015-04-19T12:42:31Z</time>
      </trkpt>
      <trkpt lat="43.23795" lon="6.35733">
        <ele>349.3</ele>
        <time>2015-04-19T12:42:38Z</time>
      </trkpt>
      <trkpt lat="43.23802" lon="6.35725">
        <ele>350.1</ele>
        <time>2015-04-19T12:42:51Z</time>
      </trkpt>
      <trkpt lat="43.23803" lon="6.35724">
        <ele>350.3</ele>
        <time>2015-04-19T12:42:52Z</time>
      </trkpt>
      <trkpt lat="43.23811" lon="6.35708">
        <ele>351.1</ele>
        <time>2015-04-19T12:43:21Z</time>
      </trkpt>
      <trkpt lat="43.23808" lon="6.35698">
        <ele>350.9</ele>
        <time>2015-04-19T12:43:30Z</time>
      </trkpt>
      <trkpt lat="43.23803" lon="6.35689">
        <ele>352.2</ele>
        <time>2015-04-19T12:43:37Z</time>
      </trkpt>
      <trkpt lat="43.23796" lon="6.35682">
        <ele>353.1</ele>
        <time>2015-04-19T12:43:45Z</time>
      </trkpt>
      <trkpt lat="43.23788" lon="6.35676">
        <ele>353.4</ele>
        <time>2015-04-19T12:43:55Z</time>
      </trkpt>
      <trkpt lat="43.23788" lon="6.35675">
        <ele>353.4</ele>
        <time>2015-04-19T12:43:56Z</time>
      </trkpt>
      <trkpt lat="43.23788" lon="6.35654">
        <ele>354.8</ele>
        <time>2015-04-19T12:44:25Z</time>
      </trkpt>
      <trkpt lat="43.23787" lon="6.35642">
        <ele>356.8</ele>
        <time>2015-04-19T12:44:36Z</time>
      </trkpt>
      <trkpt lat="43.23787" lon="6.35631">
        <ele>358.2</ele>
        <time>2015-04-19T12:44:46Z</time>
      </trkpt>
      <trkpt lat="43.23792" lon="6.35623">
        <ele>358.4</ele>
        <time>2015-04-19T12:44:53Z</time>
      </trkpt>
      <trkpt lat="43.23792" lon="6.35611">
        <ele>359.2</ele>
        <time>2015-04-19T12:45:02Z</time>
      </trkpt>
      <trkpt lat="43.23792" lon="6.3561">
        <ele>359.3</ele>
        <time>2015-04-19T12:45:03Z</time>
      </trkpt>
      <trkpt lat="43.23783" lon="6.35596">
        <ele>359.6</ele>
        <time>2015-04-19T12:45:23Z</time>
      </trkpt>
      <trkpt lat="43.23791" lon="6.35596">
        <ele>359.7</ele>
        <time>2015-04-19T12:46:29Z</time>
      </trkpt>
      <trkpt lat="43.23792" lon="6.35596">
        <ele>359.4</ele>
        <time>2015-04-19T12:46:30Z</time>
      </trkpt>
    </trkseg>
  </trk>
</gpx>